<?xml version="1.0" encoding="UTF-8" standalone="no" ?>
<gpx xmlns="http://www.topografix.com/GPX/1/1" xmlns:xsi="http://www.w3.org/2001/XMLSchema-instance" xsi:schemaLocation="http://www.topografix.com/GPX/1/1 http://www.topografix.com/GPX/1/1/gpx.xsd" version="1.1" creator="VisuGPX - https://www.visugpx.com">
  <metadata>
    <name>Luminy - Sugiton - Morgiou - Baumettes</name>
    <desc><![CDATA[Luminy - Sugiton par Belvédère, puis Morgiou et Baumettes]]></desc>
  </metadata>
  <trk>
    <name><![CDATA[2018-02-03 09-27]]></name>
    <trkseg>
      <trkpt lat="43.22991" lon="5.43707">
        <ele>152.8</ele>
        <time>2018-02-03T08:27:41Z</time>
      </trkpt>
      <trkpt lat="43.22984" lon="5.43708">
        <ele>153.2</ele>
        <time>2018-02-03T08:27:46Z</time>
      </trkpt>
      <trkpt lat="43.22978" lon="5.43712">
        <ele>152.2</ele>
        <time>2018-02-03T08:27:51Z</time>
      </trkpt>
      <trkpt lat="43.22972" lon="5.43713">
        <ele>146.4</ele>
        <time>2018-02-03T08:27:56Z</time>
      </trkpt>
      <trkpt lat="43.22968" lon="5.43713">
        <ele>148.2</ele>
        <time>2018-02-03T08:28:01Z</time>
      </trkpt>
      <trkpt lat="43.22967" lon="5.43712">
        <ele>147.6</ele>
        <time>2018-02-03T08:28:06Z</time>
      </trkpt>
      <trkpt lat="43.22964" lon="5.43713">
        <ele>147</ele>
        <time>2018-02-03T08:28:12Z</time>
      </trkpt>
      <trkpt lat="43.22962" lon="5.43714">
        <ele>150.6</ele>
        <time>2018-02-03T08:28:17Z</time>
      </trkpt>
      <trkpt lat="43.22956" lon="5.43712">
        <ele>150.8</ele>
        <time>2018-02-03T08:28:22Z</time>
      </trkpt>
      <trkpt lat="43.22951" lon="5.43711">
        <ele>151.8</ele>
        <time>2018-02-03T08:28:27Z</time>
      </trkpt>
      <trkpt lat="43.22946" lon="5.43711">
        <ele>153.2</ele>
        <time>2018-02-03T08:28:32Z</time>
      </trkpt>
      <trkpt lat="43.22942" lon="5.4371">
        <ele>158</ele>
        <time>2018-02-03T08:28:37Z</time>
      </trkpt>
      <trkpt lat="43.22938" lon="5.43709">
        <ele>157</ele>
        <time>2018-02-03T08:28:42Z</time>
      </trkpt>
      <trkpt lat="43.22935" lon="5.43709">
        <ele>155.8</ele>
        <time>2018-02-03T08:28:47Z</time>
      </trkpt>
      <trkpt lat="43.22931" lon="5.43709">
        <ele>159</ele>
        <time>2018-02-03T08:28:52Z</time>
      </trkpt>
      <trkpt lat="43.22926" lon="5.4371">
        <ele>154</ele>
        <time>2018-02-03T08:28:57Z</time>
      </trkpt>
      <trkpt lat="43.22921" lon="5.43712">
        <ele>156.2</ele>
        <time>2018-02-03T08:29:02Z</time>
      </trkpt>
      <trkpt lat="43.22915" lon="5.43713">
        <ele>157.6</ele>
        <time>2018-02-03T08:29:07Z</time>
      </trkpt>
      <trkpt lat="43.22911" lon="5.43713">
        <ele>157.4</ele>
        <time>2018-02-03T08:29:12Z</time>
      </trkpt>
      <trkpt lat="43.22906" lon="5.43714">
        <ele>157.6</ele>
        <time>2018-02-03T08:29:17Z</time>
      </trkpt>
      <trkpt lat="43.22901" lon="5.43714">
        <ele>156.2</ele>
        <time>2018-02-03T08:29:22Z</time>
      </trkpt>
      <trkpt lat="43.22896" lon="5.43715">
        <ele>155.4</ele>
        <time>2018-02-03T08:29:27Z</time>
      </trkpt>
      <trkpt lat="43.22891" lon="5.43717">
        <ele>153.8</ele>
        <time>2018-02-03T08:29:32Z</time>
      </trkpt>
      <trkpt lat="43.22885" lon="5.43718">
        <ele>156</ele>
        <time>2018-02-03T08:29:37Z</time>
      </trkpt>
      <trkpt lat="43.2288" lon="5.43718">
        <ele>156</ele>
        <time>2018-02-03T08:29:42Z</time>
      </trkpt>
      <trkpt lat="43.22875" lon="5.43719">
        <ele>154.8</ele>
        <time>2018-02-03T08:29:47Z</time>
      </trkpt>
      <trkpt lat="43.22871" lon="5.43718">
        <ele>158</ele>
        <time>2018-02-03T08:29:52Z</time>
      </trkpt>
      <trkpt lat="43.22867" lon="5.43718">
        <ele>157.8</ele>
        <time>2018-02-03T08:29:57Z</time>
      </trkpt>
      <trkpt lat="43.22863" lon="5.43718">
        <ele>157.2</ele>
        <time>2018-02-03T08:30:02Z</time>
      </trkpt>
      <trkpt lat="43.22858" lon="5.43719">
        <ele>159.8</ele>
        <time>2018-02-03T08:30:07Z</time>
      </trkpt>
      <trkpt lat="43.22854" lon="5.43718">
        <ele>156</ele>
        <time>2018-02-03T08:30:12Z</time>
      </trkpt>
      <trkpt lat="43.22849" lon="5.43718">
        <ele>156.8</ele>
        <time>2018-02-03T08:30:17Z</time>
      </trkpt>
      <trkpt lat="43.22847" lon="5.43719">
        <ele>159</ele>
        <time>2018-02-03T08:30:22Z</time>
      </trkpt>
      <trkpt lat="43.22841" lon="5.43719">
        <ele>155.4</ele>
        <time>2018-02-03T08:30:27Z</time>
      </trkpt>
      <trkpt lat="43.22835" lon="5.4372">
        <ele>160.6</ele>
        <time>2018-02-03T08:30:32Z</time>
      </trkpt>
      <trkpt lat="43.22829" lon="5.43721">
        <ele>157.8</ele>
        <time>2018-02-03T08:30:37Z</time>
      </trkpt>
      <trkpt lat="43.22824" lon="5.43722">
        <ele>159.6</ele>
        <time>2018-02-03T08:30:42Z</time>
      </trkpt>
      <trkpt lat="43.22819" lon="5.43723">
        <ele>158.4</ele>
        <time>2018-02-03T08:30:47Z</time>
      </trkpt>
      <trkpt lat="43.22814" lon="5.43723">
        <ele>157.2</ele>
        <time>2018-02-03T08:30:52Z</time>
      </trkpt>
      <trkpt lat="43.22809" lon="5.43723">
        <ele>159.6</ele>
        <time>2018-02-03T08:30:57Z</time>
      </trkpt>
      <trkpt lat="43.22804" lon="5.43723">
        <ele>161.6</ele>
        <time>2018-02-03T08:31:02Z</time>
      </trkpt>
      <trkpt lat="43.22799" lon="5.43725">
        <ele>158.6</ele>
        <time>2018-02-03T08:31:07Z</time>
      </trkpt>
      <trkpt lat="43.22794" lon="5.43726">
        <ele>156.8</ele>
        <time>2018-02-03T08:31:12Z</time>
      </trkpt>
      <trkpt lat="43.22789" lon="5.43724">
        <ele>160.4</ele>
        <time>2018-02-03T08:31:17Z</time>
      </trkpt>
      <trkpt lat="43.22785" lon="5.43721">
        <ele>157.6</ele>
        <time>2018-02-03T08:31:22Z</time>
      </trkpt>
      <trkpt lat="43.2278" lon="5.4372">
        <ele>156.8</ele>
        <time>2018-02-03T08:31:27Z</time>
      </trkpt>
      <trkpt lat="43.22775" lon="5.4372">
        <ele>158.8</ele>
        <time>2018-02-03T08:31:32Z</time>
      </trkpt>
      <trkpt lat="43.2277" lon="5.4372">
        <ele>158.6</ele>
        <time>2018-02-03T08:31:37Z</time>
      </trkpt>
      <trkpt lat="43.22764" lon="5.43721">
        <ele>158.8</ele>
        <time>2018-02-03T08:31:42Z</time>
      </trkpt>
      <trkpt lat="43.22759" lon="5.43722">
        <ele>159</ele>
        <time>2018-02-03T08:31:47Z</time>
      </trkpt>
      <trkpt lat="43.22754" lon="5.43724">
        <ele>160.2</ele>
        <time>2018-02-03T08:31:52Z</time>
      </trkpt>
      <trkpt lat="43.22748" lon="5.43725">
        <ele>162.2</ele>
        <time>2018-02-03T08:31:57Z</time>
      </trkpt>
      <trkpt lat="43.22743" lon="5.43726">
        <ele>161.2</ele>
        <time>2018-02-03T08:32:02Z</time>
      </trkpt>
      <trkpt lat="43.22737" lon="5.43727">
        <ele>159.6</ele>
        <time>2018-02-03T08:32:07Z</time>
      </trkpt>
      <trkpt lat="43.22732" lon="5.43728">
        <ele>161.8</ele>
        <time>2018-02-03T08:32:12Z</time>
      </trkpt>
      <trkpt lat="43.22727" lon="5.4373">
        <ele>162.6</ele>
        <time>2018-02-03T08:32:17Z</time>
      </trkpt>
      <trkpt lat="43.22721" lon="5.43733">
        <ele>163.2</ele>
        <time>2018-02-03T08:32:22Z</time>
      </trkpt>
      <trkpt lat="43.22716" lon="5.43735">
        <ele>160</ele>
        <time>2018-02-03T08:32:27Z</time>
      </trkpt>
      <trkpt lat="43.22711" lon="5.43738">
        <ele>163</ele>
        <time>2018-02-03T08:32:32Z</time>
      </trkpt>
      <trkpt lat="43.22706" lon="5.4374">
        <ele>161.4</ele>
        <time>2018-02-03T08:32:37Z</time>
      </trkpt>
      <trkpt lat="43.22701" lon="5.43743">
        <ele>162</ele>
        <time>2018-02-03T08:32:42Z</time>
      </trkpt>
      <trkpt lat="43.22696" lon="5.43747">
        <ele>161.6</ele>
        <time>2018-02-03T08:32:47Z</time>
      </trkpt>
      <trkpt lat="43.22691" lon="5.4375">
        <ele>160.4</ele>
        <time>2018-02-03T08:32:52Z</time>
      </trkpt>
      <trkpt lat="43.22687" lon="5.43754">
        <ele>165.2</ele>
        <time>2018-02-03T08:32:57Z</time>
      </trkpt>
      <trkpt lat="43.22683" lon="5.43758">
        <ele>162.8</ele>
        <time>2018-02-03T08:33:02Z</time>
      </trkpt>
      <trkpt lat="43.22678" lon="5.43762">
        <ele>166.2</ele>
        <time>2018-02-03T08:33:07Z</time>
      </trkpt>
      <trkpt lat="43.22673" lon="5.43765">
        <ele>162.6</ele>
        <time>2018-02-03T08:33:12Z</time>
      </trkpt>
      <trkpt lat="43.22669" lon="5.43769">
        <ele>162</ele>
        <time>2018-02-03T08:33:17Z</time>
      </trkpt>
      <trkpt lat="43.22665" lon="5.43774">
        <ele>163</ele>
        <time>2018-02-03T08:33:22Z</time>
      </trkpt>
      <trkpt lat="43.2266" lon="5.43778">
        <ele>165.8</ele>
        <time>2018-02-03T08:33:27Z</time>
      </trkpt>
      <trkpt lat="43.22655" lon="5.43782">
        <ele>163</ele>
        <time>2018-02-03T08:33:32Z</time>
      </trkpt>
      <trkpt lat="43.2265" lon="5.43785">
        <ele>165.4</ele>
        <time>2018-02-03T08:33:37Z</time>
      </trkpt>
      <trkpt lat="43.22645" lon="5.43789">
        <ele>165</ele>
        <time>2018-02-03T08:33:42Z</time>
      </trkpt>
      <trkpt lat="43.2264" lon="5.43791">
        <ele>162.8</ele>
        <time>2018-02-03T08:33:47Z</time>
      </trkpt>
      <trkpt lat="43.22634" lon="5.43794">
        <ele>165</ele>
        <time>2018-02-03T08:33:52Z</time>
      </trkpt>
      <trkpt lat="43.22629" lon="5.43797">
        <ele>164.6</ele>
        <time>2018-02-03T08:33:57Z</time>
      </trkpt>
      <trkpt lat="43.22623" lon="5.43799">
        <ele>164.4</ele>
        <time>2018-02-03T08:34:02Z</time>
      </trkpt>
      <trkpt lat="43.22618" lon="5.43801">
        <ele>164.8</ele>
        <time>2018-02-03T08:34:07Z</time>
      </trkpt>
      <trkpt lat="43.22612" lon="5.43803">
        <ele>165.4</ele>
        <time>2018-02-03T08:34:12Z</time>
      </trkpt>
      <trkpt lat="43.22607" lon="5.43805">
        <ele>165.2</ele>
        <time>2018-02-03T08:34:17Z</time>
      </trkpt>
      <trkpt lat="43.22601" lon="5.43806">
        <ele>161.8</ele>
        <time>2018-02-03T08:34:22Z</time>
      </trkpt>
      <trkpt lat="43.22596" lon="5.43807">
        <ele>165</ele>
        <time>2018-02-03T08:34:27Z</time>
      </trkpt>
      <trkpt lat="43.2259" lon="5.43808">
        <ele>165.4</ele>
        <time>2018-02-03T08:34:32Z</time>
      </trkpt>
      <trkpt lat="43.22585" lon="5.43809">
        <ele>164.8</ele>
        <time>2018-02-03T08:34:37Z</time>
      </trkpt>
      <trkpt lat="43.22579" lon="5.43809">
        <ele>165</ele>
        <time>2018-02-03T08:34:42Z</time>
      </trkpt>
      <trkpt lat="43.22574" lon="5.43809">
        <ele>164.8</ele>
        <time>2018-02-03T08:34:47Z</time>
      </trkpt>
      <trkpt lat="43.22568" lon="5.4381">
        <ele>165.6</ele>
        <time>2018-02-03T08:34:52Z</time>
      </trkpt>
      <trkpt lat="43.22562" lon="5.43811">
        <ele>166</ele>
        <time>2018-02-03T08:34:57Z</time>
      </trkpt>
      <trkpt lat="43.22556" lon="5.43811">
        <ele>165.4</ele>
        <time>2018-02-03T08:35:02Z</time>
      </trkpt>
      <trkpt lat="43.22551" lon="5.4381">
        <ele>166</ele>
        <time>2018-02-03T08:35:07Z</time>
      </trkpt>
      <trkpt lat="43.22546" lon="5.4381">
        <ele>165</ele>
        <time>2018-02-03T08:35:12Z</time>
      </trkpt>
      <trkpt lat="43.2254" lon="5.43812">
        <ele>165.8</ele>
        <time>2018-02-03T08:35:17Z</time>
      </trkpt>
      <trkpt lat="43.22536" lon="5.43813">
        <ele>165.2</ele>
        <time>2018-02-03T08:35:22Z</time>
      </trkpt>
      <trkpt lat="43.2253" lon="5.43813">
        <ele>165.2</ele>
        <time>2018-02-03T08:35:27Z</time>
      </trkpt>
      <trkpt lat="43.22524" lon="5.43814">
        <ele>165</ele>
        <time>2018-02-03T08:35:32Z</time>
      </trkpt>
      <trkpt lat="43.22517" lon="5.43814">
        <ele>166.2</ele>
        <time>2018-02-03T08:35:37Z</time>
      </trkpt>
      <trkpt lat="43.22512" lon="5.43814">
        <ele>166.2</ele>
        <time>2018-02-03T08:35:42Z</time>
      </trkpt>
      <trkpt lat="43.22506" lon="5.43813">
        <ele>165.8</ele>
        <time>2018-02-03T08:35:47Z</time>
      </trkpt>
      <trkpt lat="43.225" lon="5.43812">
        <ele>166</ele>
        <time>2018-02-03T08:35:52Z</time>
      </trkpt>
      <trkpt lat="43.22494" lon="5.43812">
        <ele>166.8</ele>
        <time>2018-02-03T08:35:57Z</time>
      </trkpt>
      <trkpt lat="43.22489" lon="5.43812">
        <ele>164.2</ele>
        <time>2018-02-03T08:36:02Z</time>
      </trkpt>
      <trkpt lat="43.22483" lon="5.43812">
        <ele>168.2</ele>
        <time>2018-02-03T08:36:07Z</time>
      </trkpt>
      <trkpt lat="43.22478" lon="5.43813">
        <ele>172.2</ele>
        <time>2018-02-03T08:36:12Z</time>
      </trkpt>
      <trkpt lat="43.22473" lon="5.43812">
        <ele>167.2</ele>
        <time>2018-02-03T08:36:17Z</time>
      </trkpt>
      <trkpt lat="43.22468" lon="5.43813">
        <ele>167.8</ele>
        <time>2018-02-03T08:36:22Z</time>
      </trkpt>
      <trkpt lat="43.22463" lon="5.43813">
        <ele>166.2</ele>
        <time>2018-02-03T08:36:27Z</time>
      </trkpt>
      <trkpt lat="43.22457" lon="5.43814">
        <ele>166</ele>
        <time>2018-02-03T08:36:32Z</time>
      </trkpt>
      <trkpt lat="43.22453" lon="5.43817">
        <ele>170</ele>
        <time>2018-02-03T08:36:37Z</time>
      </trkpt>
      <trkpt lat="43.2245" lon="5.43821">
        <ele>166.2</ele>
        <time>2018-02-03T08:36:42Z</time>
      </trkpt>
      <trkpt lat="43.22444" lon="5.43826">
        <ele>169.2</ele>
        <time>2018-02-03T08:36:47Z</time>
      </trkpt>
      <trkpt lat="43.22439" lon="5.43831">
        <ele>167.2</ele>
        <time>2018-02-03T08:36:52Z</time>
      </trkpt>
      <trkpt lat="43.22434" lon="5.43835">
        <ele>164.2</ele>
        <time>2018-02-03T08:36:57Z</time>
      </trkpt>
      <trkpt lat="43.2243" lon="5.4384">
        <ele>165.6</ele>
        <time>2018-02-03T08:37:02Z</time>
      </trkpt>
      <trkpt lat="43.22426" lon="5.43843">
        <ele>166.4</ele>
        <time>2018-02-03T08:37:07Z</time>
      </trkpt>
      <trkpt lat="43.22422" lon="5.43846">
        <ele>166.4</ele>
        <time>2018-02-03T08:37:12Z</time>
      </trkpt>
      <trkpt lat="43.22415" lon="5.43848">
        <ele>168.4</ele>
        <time>2018-02-03T08:37:17Z</time>
      </trkpt>
      <trkpt lat="43.22408" lon="5.4385">
        <ele>168.2</ele>
        <time>2018-02-03T08:37:22Z</time>
      </trkpt>
      <trkpt lat="43.22402" lon="5.43853">
        <ele>165.6</ele>
        <time>2018-02-03T08:37:27Z</time>
      </trkpt>
      <trkpt lat="43.22397" lon="5.43856">
        <ele>170.6</ele>
        <time>2018-02-03T08:37:32Z</time>
      </trkpt>
      <trkpt lat="43.22394" lon="5.43858">
        <ele>167.4</ele>
        <time>2018-02-03T08:37:37Z</time>
      </trkpt>
      <trkpt lat="43.22389" lon="5.4386">
        <ele>167.2</ele>
        <time>2018-02-03T08:37:42Z</time>
      </trkpt>
      <trkpt lat="43.22383" lon="5.43864">
        <ele>167.2</ele>
        <time>2018-02-03T08:37:47Z</time>
      </trkpt>
      <trkpt lat="43.22377" lon="5.43868">
        <ele>167</ele>
        <time>2018-02-03T08:37:52Z</time>
      </trkpt>
      <trkpt lat="43.22371" lon="5.43872">
        <ele>167.2</ele>
        <time>2018-02-03T08:37:57Z</time>
      </trkpt>
      <trkpt lat="43.22366" lon="5.43877">
        <ele>168.6</ele>
        <time>2018-02-03T08:38:02Z</time>
      </trkpt>
      <trkpt lat="43.22361" lon="5.43881">
        <ele>167.2</ele>
        <time>2018-02-03T08:38:07Z</time>
      </trkpt>
      <trkpt lat="43.22358" lon="5.43886">
        <ele>167.2</ele>
        <time>2018-02-03T08:38:12Z</time>
      </trkpt>
      <trkpt lat="43.22355" lon="5.43891">
        <ele>169.4</ele>
        <time>2018-02-03T08:38:17Z</time>
      </trkpt>
      <trkpt lat="43.22351" lon="5.43897">
        <ele>168.6</ele>
        <time>2018-02-03T08:38:22Z</time>
      </trkpt>
      <trkpt lat="43.22348" lon="5.43902">
        <ele>168.2</ele>
        <time>2018-02-03T08:38:27Z</time>
      </trkpt>
      <trkpt lat="43.22343" lon="5.43907">
        <ele>167</ele>
        <time>2018-02-03T08:38:32Z</time>
      </trkpt>
      <trkpt lat="43.2234" lon="5.43912">
        <ele>173.6</ele>
        <time>2018-02-03T08:38:37Z</time>
      </trkpt>
      <trkpt lat="43.22334" lon="5.43918">
        <ele>170</ele>
        <time>2018-02-03T08:38:42Z</time>
      </trkpt>
      <trkpt lat="43.2233" lon="5.43923">
        <ele>171.8</ele>
        <time>2018-02-03T08:38:47Z</time>
      </trkpt>
      <trkpt lat="43.22326" lon="5.43928">
        <ele>170.4</ele>
        <time>2018-02-03T08:38:52Z</time>
      </trkpt>
      <trkpt lat="43.22323" lon="5.43933">
        <ele>172.4</ele>
        <time>2018-02-03T08:38:57Z</time>
      </trkpt>
      <trkpt lat="43.22319" lon="5.43938">
        <ele>174.4</ele>
        <time>2018-02-03T08:39:02Z</time>
      </trkpt>
      <trkpt lat="43.22314" lon="5.43943">
        <ele>174.2</ele>
        <time>2018-02-03T08:39:07Z</time>
      </trkpt>
      <trkpt lat="43.22311" lon="5.43948">
        <ele>172.6</ele>
        <time>2018-02-03T08:39:12Z</time>
      </trkpt>
      <trkpt lat="43.22304" lon="5.43952">
        <ele>172.6</ele>
        <time>2018-02-03T08:39:17Z</time>
      </trkpt>
      <trkpt lat="43.22301" lon="5.43956">
        <ele>172.6</ele>
        <time>2018-02-03T08:39:22Z</time>
      </trkpt>
      <trkpt lat="43.22296" lon="5.4396">
        <ele>171.6</ele>
        <time>2018-02-03T08:39:27Z</time>
      </trkpt>
      <trkpt lat="43.22291" lon="5.43965">
        <ele>170.6</ele>
        <time>2018-02-03T08:39:32Z</time>
      </trkpt>
      <trkpt lat="43.22285" lon="5.43969">
        <ele>172.2</ele>
        <time>2018-02-03T08:39:37Z</time>
      </trkpt>
      <trkpt lat="43.22281" lon="5.43971">
        <ele>171.4</ele>
        <time>2018-02-03T08:39:42Z</time>
      </trkpt>
      <trkpt lat="43.22278" lon="5.43976">
        <ele>175.6</ele>
        <time>2018-02-03T08:39:47Z</time>
      </trkpt>
      <trkpt lat="43.22274" lon="5.4398">
        <ele>174.4</ele>
        <time>2018-02-03T08:39:52Z</time>
      </trkpt>
      <trkpt lat="43.22269" lon="5.43983">
        <ele>174.2</ele>
        <time>2018-02-03T08:39:57Z</time>
      </trkpt>
      <trkpt lat="43.22262" lon="5.43986">
        <ele>175.2</ele>
        <time>2018-02-03T08:40:02Z</time>
      </trkpt>
      <trkpt lat="43.22254" lon="5.43989">
        <ele>173.6</ele>
        <time>2018-02-03T08:40:07Z</time>
      </trkpt>
      <trkpt lat="43.22247" lon="5.43991">
        <ele>172.8</ele>
        <time>2018-02-03T08:40:12Z</time>
      </trkpt>
      <trkpt lat="43.22242" lon="5.43993">
        <ele>175.4</ele>
        <time>2018-02-03T08:40:17Z</time>
      </trkpt>
      <trkpt lat="43.22236" lon="5.43995">
        <ele>175.2</ele>
        <time>2018-02-03T08:40:22Z</time>
      </trkpt>
      <trkpt lat="43.2223" lon="5.43997">
        <ele>176.6</ele>
        <time>2018-02-03T08:40:27Z</time>
      </trkpt>
      <trkpt lat="43.22224" lon="5.43998">
        <ele>175.6</ele>
        <time>2018-02-03T08:40:32Z</time>
      </trkpt>
      <trkpt lat="43.22219" lon="5.44001">
        <ele>174</ele>
        <time>2018-02-03T08:40:37Z</time>
      </trkpt>
      <trkpt lat="43.22214" lon="5.44003">
        <ele>177.4</ele>
        <time>2018-02-03T08:40:42Z</time>
      </trkpt>
      <trkpt lat="43.22211" lon="5.44004">
        <ele>176.2</ele>
        <time>2018-02-03T08:40:47Z</time>
      </trkpt>
      <trkpt lat="43.22204" lon="5.44007">
        <ele>177.4</ele>
        <time>2018-02-03T08:40:52Z</time>
      </trkpt>
      <trkpt lat="43.22198" lon="5.44009">
        <ele>177.6</ele>
        <time>2018-02-03T08:40:57Z</time>
      </trkpt>
      <trkpt lat="43.22192" lon="5.44011">
        <ele>178.6</ele>
        <time>2018-02-03T08:41:02Z</time>
      </trkpt>
      <trkpt lat="43.22187" lon="5.44013">
        <ele>178.2</ele>
        <time>2018-02-03T08:41:07Z</time>
      </trkpt>
      <trkpt lat="43.22181" lon="5.44015">
        <ele>180.2</ele>
        <time>2018-02-03T08:41:12Z</time>
      </trkpt>
      <trkpt lat="43.22175" lon="5.44018">
        <ele>177.8</ele>
        <time>2018-02-03T08:41:17Z</time>
      </trkpt>
      <trkpt lat="43.22169" lon="5.44022">
        <ele>177</ele>
        <time>2018-02-03T08:41:22Z</time>
      </trkpt>
      <trkpt lat="43.22164" lon="5.44025">
        <ele>178.2</ele>
        <time>2018-02-03T08:41:27Z</time>
      </trkpt>
      <trkpt lat="43.22159" lon="5.44028">
        <ele>179.8</ele>
        <time>2018-02-03T08:41:32Z</time>
      </trkpt>
      <trkpt lat="43.22154" lon="5.44032">
        <ele>174.6</ele>
        <time>2018-02-03T08:41:37Z</time>
      </trkpt>
      <trkpt lat="43.2215" lon="5.44036">
        <ele>175.4</ele>
        <time>2018-02-03T08:41:42Z</time>
      </trkpt>
      <trkpt lat="43.22146" lon="5.44041">
        <ele>176.8</ele>
        <time>2018-02-03T08:41:47Z</time>
      </trkpt>
      <trkpt lat="43.22141" lon="5.44046">
        <ele>178.2</ele>
        <time>2018-02-03T08:41:52Z</time>
      </trkpt>
      <trkpt lat="43.22137" lon="5.44051">
        <ele>178</ele>
        <time>2018-02-03T08:41:58Z</time>
      </trkpt>
      <trkpt lat="43.22131" lon="5.44055">
        <ele>179.6</ele>
        <time>2018-02-03T08:42:03Z</time>
      </trkpt>
      <trkpt lat="43.22127" lon="5.4406">
        <ele>179.6</ele>
        <time>2018-02-03T08:42:08Z</time>
      </trkpt>
      <trkpt lat="43.22121" lon="5.44064">
        <ele>180.8</ele>
        <time>2018-02-03T08:42:13Z</time>
      </trkpt>
      <trkpt lat="43.22116" lon="5.44068">
        <ele>180.8</ele>
        <time>2018-02-03T08:42:18Z</time>
      </trkpt>
      <trkpt lat="43.22115" lon="5.4407">
        <ele>182</ele>
        <time>2018-02-03T08:42:23Z</time>
      </trkpt>
      <trkpt lat="43.22108" lon="5.44074">
        <ele>183</ele>
        <time>2018-02-03T08:42:28Z</time>
      </trkpt>
      <trkpt lat="43.22104" lon="5.44079">
        <ele>182.4</ele>
        <time>2018-02-03T08:42:33Z</time>
      </trkpt>
      <trkpt lat="43.22101" lon="5.44082">
        <ele>180.8</ele>
        <time>2018-02-03T08:42:38Z</time>
      </trkpt>
      <trkpt lat="43.22097" lon="5.44086">
        <ele>180.6</ele>
        <time>2018-02-03T08:42:43Z</time>
      </trkpt>
      <trkpt lat="43.22094" lon="5.44089">
        <ele>181</ele>
        <time>2018-02-03T08:42:48Z</time>
      </trkpt>
      <trkpt lat="43.22091" lon="5.44094">
        <ele>182.4</ele>
        <time>2018-02-03T08:42:53Z</time>
      </trkpt>
      <trkpt lat="43.22087" lon="5.44098">
        <ele>182</ele>
        <time>2018-02-03T08:42:58Z</time>
      </trkpt>
      <trkpt lat="43.22085" lon="5.441">
        <ele>182.4</ele>
        <time>2018-02-03T08:43:03Z</time>
      </trkpt>
      <trkpt lat="43.22084" lon="5.44102">
        <ele>181.4</ele>
        <time>2018-02-03T08:43:08Z</time>
      </trkpt>
      <trkpt lat="43.22084" lon="5.44103">
        <ele>181.8</ele>
        <time>2018-02-03T08:43:18Z</time>
      </trkpt>
      <trkpt lat="43.22082" lon="5.44106">
        <ele>183.4</ele>
        <time>2018-02-03T08:45:58Z</time>
      </trkpt>
      <trkpt lat="43.22078" lon="5.44111">
        <ele>184</ele>
        <time>2018-02-03T08:46:03Z</time>
      </trkpt>
      <trkpt lat="43.22079" lon="5.44111">
        <ele>182.2</ele>
        <time>2018-02-03T08:46:28Z</time>
      </trkpt>
      <trkpt lat="43.22075" lon="5.44112">
        <ele>182.2</ele>
        <time>2018-02-03T08:46:33Z</time>
      </trkpt>
      <trkpt lat="43.2207" lon="5.44115">
        <ele>181.4</ele>
        <time>2018-02-03T08:47:34Z</time>
      </trkpt>
      <trkpt lat="43.22069" lon="5.44123">
        <ele>181.8</ele>
        <time>2018-02-03T08:47:39Z</time>
      </trkpt>
      <trkpt lat="43.22067" lon="5.44128">
        <ele>181.6</ele>
        <time>2018-02-03T08:47:44Z</time>
      </trkpt>
      <trkpt lat="43.22065" lon="5.44131">
        <ele>182.4</ele>
        <time>2018-02-03T08:47:49Z</time>
      </trkpt>
      <trkpt lat="43.22063" lon="5.44136">
        <ele>183</ele>
        <time>2018-02-03T08:47:54Z</time>
      </trkpt>
      <trkpt lat="43.22061" lon="5.44142">
        <ele>184.4</ele>
        <time>2018-02-03T08:47:59Z</time>
      </trkpt>
      <trkpt lat="43.22059" lon="5.44148">
        <ele>185.6</ele>
        <time>2018-02-03T08:48:04Z</time>
      </trkpt>
      <trkpt lat="43.22057" lon="5.44153">
        <ele>185</ele>
        <time>2018-02-03T08:48:09Z</time>
      </trkpt>
      <trkpt lat="43.22056" lon="5.44159">
        <ele>185.4</ele>
        <time>2018-02-03T08:48:14Z</time>
      </trkpt>
      <trkpt lat="43.22054" lon="5.44166">
        <ele>186.8</ele>
        <time>2018-02-03T08:48:19Z</time>
      </trkpt>
      <trkpt lat="43.22052" lon="5.44173">
        <ele>186.2</ele>
        <time>2018-02-03T08:48:24Z</time>
      </trkpt>
      <trkpt lat="43.2205" lon="5.4418">
        <ele>187.2</ele>
        <time>2018-02-03T08:48:29Z</time>
      </trkpt>
      <trkpt lat="43.22049" lon="5.44187">
        <ele>187.4</ele>
        <time>2018-02-03T08:48:34Z</time>
      </trkpt>
      <trkpt lat="43.22048" lon="5.44195">
        <ele>188.6</ele>
        <time>2018-02-03T08:48:39Z</time>
      </trkpt>
      <trkpt lat="43.22045" lon="5.44203">
        <ele>186.6</ele>
        <time>2018-02-03T08:48:44Z</time>
      </trkpt>
      <trkpt lat="43.22042" lon="5.4421">
        <ele>186.6</ele>
        <time>2018-02-03T08:48:49Z</time>
      </trkpt>
      <trkpt lat="43.2204" lon="5.44216">
        <ele>183.2</ele>
        <time>2018-02-03T08:48:54Z</time>
      </trkpt>
      <trkpt lat="43.22038" lon="5.44223">
        <ele>187.2</ele>
        <time>2018-02-03T08:48:59Z</time>
      </trkpt>
      <trkpt lat="43.22036" lon="5.44231">
        <ele>188</ele>
        <time>2018-02-03T08:49:04Z</time>
      </trkpt>
      <trkpt lat="43.22035" lon="5.44238">
        <ele>187.2</ele>
        <time>2018-02-03T08:49:09Z</time>
      </trkpt>
      <trkpt lat="43.22033" lon="5.44246">
        <ele>187.8</ele>
        <time>2018-02-03T08:49:14Z</time>
      </trkpt>
      <trkpt lat="43.22031" lon="5.44253">
        <ele>190</ele>
        <time>2018-02-03T08:49:19Z</time>
      </trkpt>
      <trkpt lat="43.22029" lon="5.4426">
        <ele>192.2</ele>
        <time>2018-02-03T08:49:24Z</time>
      </trkpt>
      <trkpt lat="43.22027" lon="5.44267">
        <ele>191.8</ele>
        <time>2018-02-03T08:49:29Z</time>
      </trkpt>
      <trkpt lat="43.22024" lon="5.44273">
        <ele>193.6</ele>
        <time>2018-02-03T08:49:34Z</time>
      </trkpt>
      <trkpt lat="43.22021" lon="5.44279">
        <ele>191.8</ele>
        <time>2018-02-03T08:49:39Z</time>
      </trkpt>
      <trkpt lat="43.22017" lon="5.44285">
        <ele>194.4</ele>
        <time>2018-02-03T08:49:44Z</time>
      </trkpt>
      <trkpt lat="43.22015" lon="5.44291">
        <ele>192.6</ele>
        <time>2018-02-03T08:49:49Z</time>
      </trkpt>
      <trkpt lat="43.22012" lon="5.44298">
        <ele>190</ele>
        <time>2018-02-03T08:49:54Z</time>
      </trkpt>
      <trkpt lat="43.22009" lon="5.44303">
        <ele>192.6</ele>
        <time>2018-02-03T08:49:59Z</time>
      </trkpt>
      <trkpt lat="43.22005" lon="5.44307">
        <ele>191.2</ele>
        <time>2018-02-03T08:50:04Z</time>
      </trkpt>
      <trkpt lat="43.22001" lon="5.44313">
        <ele>192.4</ele>
        <time>2018-02-03T08:50:09Z</time>
      </trkpt>
      <trkpt lat="43.21998" lon="5.4432">
        <ele>194.8</ele>
        <time>2018-02-03T08:50:14Z</time>
      </trkpt>
      <trkpt lat="43.21995" lon="5.44326">
        <ele>193.8</ele>
        <time>2018-02-03T08:50:19Z</time>
      </trkpt>
      <trkpt lat="43.21991" lon="5.44332">
        <ele>192.2</ele>
        <time>2018-02-03T08:50:24Z</time>
      </trkpt>
      <trkpt lat="43.21988" lon="5.44338">
        <ele>195.2</ele>
        <time>2018-02-03T08:50:29Z</time>
      </trkpt>
      <trkpt lat="43.21986" lon="5.44345">
        <ele>194</ele>
        <time>2018-02-03T08:50:34Z</time>
      </trkpt>
      <trkpt lat="43.21983" lon="5.44351">
        <ele>194.4</ele>
        <time>2018-02-03T08:50:39Z</time>
      </trkpt>
      <trkpt lat="43.2198" lon="5.44357">
        <ele>193.4</ele>
        <time>2018-02-03T08:50:44Z</time>
      </trkpt>
      <trkpt lat="43.21977" lon="5.44362">
        <ele>195.4</ele>
        <time>2018-02-03T08:50:49Z</time>
      </trkpt>
      <trkpt lat="43.21974" lon="5.44367">
        <ele>197.2</ele>
        <time>2018-02-03T08:50:54Z</time>
      </trkpt>
      <trkpt lat="43.21971" lon="5.44373">
        <ele>194.8</ele>
        <time>2018-02-03T08:50:59Z</time>
      </trkpt>
      <trkpt lat="43.21968" lon="5.44378">
        <ele>195</ele>
        <time>2018-02-03T08:51:04Z</time>
      </trkpt>
      <trkpt lat="43.21965" lon="5.44383">
        <ele>197.2</ele>
        <time>2018-02-03T08:51:09Z</time>
      </trkpt>
      <trkpt lat="43.21962" lon="5.44387">
        <ele>195.6</ele>
        <time>2018-02-03T08:51:14Z</time>
      </trkpt>
      <trkpt lat="43.21959" lon="5.44391">
        <ele>195.4</ele>
        <time>2018-02-03T08:51:19Z</time>
      </trkpt>
      <trkpt lat="43.21956" lon="5.44396">
        <ele>197.2</ele>
        <time>2018-02-03T08:51:24Z</time>
      </trkpt>
      <trkpt lat="43.21953" lon="5.44401">
        <ele>198.4</ele>
        <time>2018-02-03T08:51:29Z</time>
      </trkpt>
      <trkpt lat="43.2195" lon="5.44406">
        <ele>195.8</ele>
        <time>2018-02-03T08:51:34Z</time>
      </trkpt>
      <trkpt lat="43.21946" lon="5.44411">
        <ele>198</ele>
        <time>2018-02-03T08:51:39Z</time>
      </trkpt>
      <trkpt lat="43.21944" lon="5.44414">
        <ele>199.4</ele>
        <time>2018-02-03T08:51:44Z</time>
      </trkpt>
      <trkpt lat="43.2194" lon="5.4442">
        <ele>196.8</ele>
        <time>2018-02-03T08:51:49Z</time>
      </trkpt>
      <trkpt lat="43.21937" lon="5.44425">
        <ele>197.4</ele>
        <time>2018-02-03T08:51:54Z</time>
      </trkpt>
      <trkpt lat="43.21934" lon="5.44431">
        <ele>197.4</ele>
        <time>2018-02-03T08:51:59Z</time>
      </trkpt>
      <trkpt lat="43.21931" lon="5.44436">
        <ele>199.4</ele>
        <time>2018-02-03T08:52:04Z</time>
      </trkpt>
      <trkpt lat="43.21928" lon="5.44441">
        <ele>200</ele>
        <time>2018-02-03T08:52:09Z</time>
      </trkpt>
      <trkpt lat="43.21927" lon="5.44448">
        <ele>195.4</ele>
        <time>2018-02-03T08:52:14Z</time>
      </trkpt>
      <trkpt lat="43.21926" lon="5.44455">
        <ele>199.8</ele>
        <time>2018-02-03T08:52:19Z</time>
      </trkpt>
      <trkpt lat="43.21925" lon="5.44461">
        <ele>201</ele>
        <time>2018-02-03T08:52:24Z</time>
      </trkpt>
      <trkpt lat="43.21925" lon="5.44468">
        <ele>202</ele>
        <time>2018-02-03T08:52:29Z</time>
      </trkpt>
      <trkpt lat="43.21924" lon="5.44475">
        <ele>202.4</ele>
        <time>2018-02-03T08:52:34Z</time>
      </trkpt>
      <trkpt lat="43.21923" lon="5.44483">
        <ele>200</ele>
        <time>2018-02-03T08:52:39Z</time>
      </trkpt>
      <trkpt lat="43.21922" lon="5.44489">
        <ele>202.2</ele>
        <time>2018-02-03T08:52:44Z</time>
      </trkpt>
      <trkpt lat="43.21922" lon="5.44497">
        <ele>204.4</ele>
        <time>2018-02-03T08:52:49Z</time>
      </trkpt>
      <trkpt lat="43.21922" lon="5.44503">
        <ele>205.4</ele>
        <time>2018-02-03T08:52:54Z</time>
      </trkpt>
      <trkpt lat="43.21924" lon="5.44511">
        <ele>204.8</ele>
        <time>2018-02-03T08:52:59Z</time>
      </trkpt>
      <trkpt lat="43.21925" lon="5.44518">
        <ele>200.8</ele>
        <time>2018-02-03T08:53:04Z</time>
      </trkpt>
      <trkpt lat="43.21927" lon="5.44525">
        <ele>203.6</ele>
        <time>2018-02-03T08:53:09Z</time>
      </trkpt>
      <trkpt lat="43.21929" lon="5.44532">
        <ele>207.2</ele>
        <time>2018-02-03T08:53:14Z</time>
      </trkpt>
      <trkpt lat="43.2193" lon="5.44538">
        <ele>205.2</ele>
        <time>2018-02-03T08:53:19Z</time>
      </trkpt>
      <trkpt lat="43.21931" lon="5.44545">
        <ele>204.2</ele>
        <time>2018-02-03T08:53:24Z</time>
      </trkpt>
      <trkpt lat="43.21932" lon="5.44551">
        <ele>206.4</ele>
        <time>2018-02-03T08:53:29Z</time>
      </trkpt>
      <trkpt lat="43.21931" lon="5.44559">
        <ele>208.8</ele>
        <time>2018-02-03T08:53:34Z</time>
      </trkpt>
      <trkpt lat="43.21926" lon="5.44564">
        <ele>205</ele>
        <time>2018-02-03T08:53:39Z</time>
      </trkpt>
      <trkpt lat="43.21923" lon="5.44569">
        <ele>209</ele>
        <time>2018-02-03T08:53:44Z</time>
      </trkpt>
      <trkpt lat="43.2192" lon="5.44575">
        <ele>210</ele>
        <time>2018-02-03T08:53:49Z</time>
      </trkpt>
      <trkpt lat="43.21917" lon="5.44581">
        <ele>212</ele>
        <time>2018-02-03T08:53:54Z</time>
      </trkpt>
      <trkpt lat="43.21914" lon="5.44587">
        <ele>210.8</ele>
        <time>2018-02-03T08:53:59Z</time>
      </trkpt>
      <trkpt lat="43.21911" lon="5.44592">
        <ele>212</ele>
        <time>2018-02-03T08:54:04Z</time>
      </trkpt>
      <trkpt lat="43.21908" lon="5.44597">
        <ele>212.8</ele>
        <time>2018-02-03T08:54:09Z</time>
      </trkpt>
      <trkpt lat="43.21904" lon="5.44603">
        <ele>210.6</ele>
        <time>2018-02-03T08:54:14Z</time>
      </trkpt>
      <trkpt lat="43.21901" lon="5.44608">
        <ele>210.2</ele>
        <time>2018-02-03T08:54:19Z</time>
      </trkpt>
      <trkpt lat="43.21896" lon="5.44613">
        <ele>209.2</ele>
        <time>2018-02-03T08:54:24Z</time>
      </trkpt>
      <trkpt lat="43.21893" lon="5.44618">
        <ele>211.4</ele>
        <time>2018-02-03T08:54:29Z</time>
      </trkpt>
      <trkpt lat="43.21889" lon="5.44624">
        <ele>212</ele>
        <time>2018-02-03T08:54:34Z</time>
      </trkpt>
      <trkpt lat="43.21887" lon="5.44631">
        <ele>211.2</ele>
        <time>2018-02-03T08:54:39Z</time>
      </trkpt>
      <trkpt lat="43.21887" lon="5.44634">
        <ele>212.2</ele>
        <time>2018-02-03T08:54:44Z</time>
      </trkpt>
      <trkpt lat="43.21887" lon="5.44635">
        <ele>211.8</ele>
        <time>2018-02-03T08:54:49Z</time>
      </trkpt>
      <trkpt lat="43.21886" lon="5.4464">
        <ele>211.8</ele>
        <time>2018-02-03T08:54:54Z</time>
      </trkpt>
      <trkpt lat="43.21887" lon="5.44647">
        <ele>215.8</ele>
        <time>2018-02-03T08:54:59Z</time>
      </trkpt>
      <trkpt lat="43.21885" lon="5.44655">
        <ele>215.8</ele>
        <time>2018-02-03T08:55:04Z</time>
      </trkpt>
      <trkpt lat="43.21883" lon="5.44662">
        <ele>215</ele>
        <time>2018-02-03T08:55:09Z</time>
      </trkpt>
      <trkpt lat="43.21881" lon="5.44668">
        <ele>214</ele>
        <time>2018-02-03T08:55:14Z</time>
      </trkpt>
      <trkpt lat="43.21879" lon="5.44674">
        <ele>215.4</ele>
        <time>2018-02-03T08:55:19Z</time>
      </trkpt>
      <trkpt lat="43.21877" lon="5.4468">
        <ele>214.6</ele>
        <time>2018-02-03T08:55:24Z</time>
      </trkpt>
      <trkpt lat="43.21875" lon="5.44687">
        <ele>215.8</ele>
        <time>2018-02-03T08:55:29Z</time>
      </trkpt>
      <trkpt lat="43.21872" lon="5.44693">
        <ele>217</ele>
        <time>2018-02-03T08:55:34Z</time>
      </trkpt>
      <trkpt lat="43.2187" lon="5.447">
        <ele>215.6</ele>
        <time>2018-02-03T08:55:39Z</time>
      </trkpt>
      <trkpt lat="43.21867" lon="5.44706">
        <ele>213.4</ele>
        <time>2018-02-03T08:55:44Z</time>
      </trkpt>
      <trkpt lat="43.21864" lon="5.44711">
        <ele>212.6</ele>
        <time>2018-02-03T08:55:49Z</time>
      </trkpt>
      <trkpt lat="43.21861" lon="5.44711">
        <ele>215.2</ele>
        <time>2018-02-03T08:55:54Z</time>
      </trkpt>
      <trkpt lat="43.21855" lon="5.4471">
        <ele>216.6</ele>
        <time>2018-02-03T08:55:59Z</time>
      </trkpt>
      <trkpt lat="43.2185" lon="5.44708">
        <ele>214.2</ele>
        <time>2018-02-03T08:56:04Z</time>
      </trkpt>
      <trkpt lat="43.21845" lon="5.44704">
        <ele>215.6</ele>
        <time>2018-02-03T08:56:09Z</time>
      </trkpt>
      <trkpt lat="43.21839" lon="5.44701">
        <ele>213.2</ele>
        <time>2018-02-03T08:56:14Z</time>
      </trkpt>
      <trkpt lat="43.21834" lon="5.44699">
        <ele>215.2</ele>
        <time>2018-02-03T08:56:19Z</time>
      </trkpt>
      <trkpt lat="43.21829" lon="5.44697">
        <ele>216.8</ele>
        <time>2018-02-03T08:56:24Z</time>
      </trkpt>
      <trkpt lat="43.21825" lon="5.44694">
        <ele>215.8</ele>
        <time>2018-02-03T08:56:29Z</time>
      </trkpt>
      <trkpt lat="43.2182" lon="5.44692">
        <ele>217.6</ele>
        <time>2018-02-03T08:56:34Z</time>
      </trkpt>
      <trkpt lat="43.21815" lon="5.4469">
        <ele>218.4</ele>
        <time>2018-02-03T08:56:39Z</time>
      </trkpt>
      <trkpt lat="43.2181" lon="5.44688">
        <ele>216.2</ele>
        <time>2018-02-03T08:56:44Z</time>
      </trkpt>
      <trkpt lat="43.21805" lon="5.44686">
        <ele>218.6</ele>
        <time>2018-02-03T08:56:49Z</time>
      </trkpt>
      <trkpt lat="43.21799" lon="5.44685">
        <ele>218.6</ele>
        <time>2018-02-03T08:56:54Z</time>
      </trkpt>
      <trkpt lat="43.21794" lon="5.44684">
        <ele>219.4</ele>
        <time>2018-02-03T08:56:59Z</time>
      </trkpt>
      <trkpt lat="43.21789" lon="5.44682">
        <ele>216.8</ele>
        <time>2018-02-03T08:57:04Z</time>
      </trkpt>
      <trkpt lat="43.21784" lon="5.44679">
        <ele>222</ele>
        <time>2018-02-03T08:57:09Z</time>
      </trkpt>
      <trkpt lat="43.21779" lon="5.44676">
        <ele>220.2</ele>
        <time>2018-02-03T08:57:14Z</time>
      </trkpt>
      <trkpt lat="43.21776" lon="5.44675">
        <ele>222.2</ele>
        <time>2018-02-03T08:57:19Z</time>
      </trkpt>
      <trkpt lat="43.21776" lon="5.44676">
        <ele>221.6</ele>
        <time>2018-02-03T08:57:24Z</time>
      </trkpt>
      <trkpt lat="43.21775" lon="5.44675">
        <ele>221.4</ele>
        <time>2018-02-03T08:57:29Z</time>
      </trkpt>
      <trkpt lat="43.21773" lon="5.44674">
        <ele>220.6</ele>
        <time>2018-02-03T08:57:34Z</time>
      </trkpt>
      <trkpt lat="43.21768" lon="5.44672">
        <ele>222.4</ele>
        <time>2018-02-03T08:57:39Z</time>
      </trkpt>
      <trkpt lat="43.21763" lon="5.4467">
        <ele>222.4</ele>
        <time>2018-02-03T08:57:44Z</time>
      </trkpt>
      <trkpt lat="43.21758" lon="5.44668">
        <ele>222.6</ele>
        <time>2018-02-03T08:57:49Z</time>
      </trkpt>
      <trkpt lat="43.21753" lon="5.44666">
        <ele>221.2</ele>
        <time>2018-02-03T08:57:54Z</time>
      </trkpt>
      <trkpt lat="43.21749" lon="5.44665">
        <ele>221.6</ele>
        <time>2018-02-03T08:57:59Z</time>
      </trkpt>
      <trkpt lat="43.21748" lon="5.44666">
        <ele>222</ele>
        <time>2018-02-03T08:58:24Z</time>
      </trkpt>
      <trkpt lat="43.21747" lon="5.44666">
        <ele>219.8</ele>
        <time>2018-02-03T08:58:29Z</time>
      </trkpt>
      <trkpt lat="43.21743" lon="5.44662">
        <ele>222.8</ele>
        <time>2018-02-03T08:58:34Z</time>
      </trkpt>
      <trkpt lat="43.21738" lon="5.44659">
        <ele>219.4</ele>
        <time>2018-02-03T08:58:39Z</time>
      </trkpt>
      <trkpt lat="43.21734" lon="5.44655">
        <ele>221.2</ele>
        <time>2018-02-03T08:58:44Z</time>
      </trkpt>
      <trkpt lat="43.21729" lon="5.44651">
        <ele>224.2</ele>
        <time>2018-02-03T08:58:49Z</time>
      </trkpt>
      <trkpt lat="43.21725" lon="5.44645">
        <ele>225.2</ele>
        <time>2018-02-03T08:58:54Z</time>
      </trkpt>
      <trkpt lat="43.21721" lon="5.44639">
        <ele>226.2</ele>
        <time>2018-02-03T08:58:59Z</time>
      </trkpt>
      <trkpt lat="43.21718" lon="5.44632">
        <ele>224</ele>
        <time>2018-02-03T08:59:04Z</time>
      </trkpt>
      <trkpt lat="43.21714" lon="5.44626">
        <ele>223</ele>
        <time>2018-02-03T08:59:09Z</time>
      </trkpt>
      <trkpt lat="43.21711" lon="5.4462">
        <ele>224.2</ele>
        <time>2018-02-03T08:59:14Z</time>
      </trkpt>
      <trkpt lat="43.21708" lon="5.44613">
        <ele>224.4</ele>
        <time>2018-02-03T08:59:19Z</time>
      </trkpt>
      <trkpt lat="43.21704" lon="5.44606">
        <ele>226.2</ele>
        <time>2018-02-03T08:59:24Z</time>
      </trkpt>
      <trkpt lat="43.217" lon="5.446">
        <ele>227</ele>
        <time>2018-02-03T08:59:29Z</time>
      </trkpt>
      <trkpt lat="43.21697" lon="5.44593">
        <ele>224.6</ele>
        <time>2018-02-03T08:59:34Z</time>
      </trkpt>
      <trkpt lat="43.21694" lon="5.44586">
        <ele>224.4</ele>
        <time>2018-02-03T08:59:39Z</time>
      </trkpt>
      <trkpt lat="43.21692" lon="5.4458">
        <ele>226.2</ele>
        <time>2018-02-03T08:59:44Z</time>
      </trkpt>
      <trkpt lat="43.21689" lon="5.44573">
        <ele>228.2</ele>
        <time>2018-02-03T08:59:49Z</time>
      </trkpt>
      <trkpt lat="43.21687" lon="5.44566">
        <ele>227.2</ele>
        <time>2018-02-03T08:59:54Z</time>
      </trkpt>
      <trkpt lat="43.21685" lon="5.44559">
        <ele>225.8</ele>
        <time>2018-02-03T08:59:59Z</time>
      </trkpt>
      <trkpt lat="43.21683" lon="5.44552">
        <ele>225.4</ele>
        <time>2018-02-03T09:00:04Z</time>
      </trkpt>
      <trkpt lat="43.21681" lon="5.44546">
        <ele>225</ele>
        <time>2018-02-03T09:00:09Z</time>
      </trkpt>
      <trkpt lat="43.21678" lon="5.44539">
        <ele>227</ele>
        <time>2018-02-03T09:00:14Z</time>
      </trkpt>
      <trkpt lat="43.21676" lon="5.44532">
        <ele>225.2</ele>
        <time>2018-02-03T09:00:19Z</time>
      </trkpt>
      <trkpt lat="43.21673" lon="5.44525">
        <ele>224.6</ele>
        <time>2018-02-03T09:00:24Z</time>
      </trkpt>
      <trkpt lat="43.21669" lon="5.4452">
        <ele>226.6</ele>
        <time>2018-02-03T09:00:29Z</time>
      </trkpt>
      <trkpt lat="43.21664" lon="5.44516">
        <ele>226.2</ele>
        <time>2018-02-03T09:00:34Z</time>
      </trkpt>
      <trkpt lat="43.21658" lon="5.44515">
        <ele>224</ele>
        <time>2018-02-03T09:00:39Z</time>
      </trkpt>
      <trkpt lat="43.21652" lon="5.44513">
        <ele>227.2</ele>
        <time>2018-02-03T09:00:44Z</time>
      </trkpt>
      <trkpt lat="43.21646" lon="5.44512">
        <ele>225</ele>
        <time>2018-02-03T09:00:49Z</time>
      </trkpt>
      <trkpt lat="43.2164" lon="5.44511">
        <ele>225</ele>
        <time>2018-02-03T09:00:54Z</time>
      </trkpt>
      <trkpt lat="43.21635" lon="5.44511">
        <ele>224.2</ele>
        <time>2018-02-03T09:00:59Z</time>
      </trkpt>
      <trkpt lat="43.21629" lon="5.44512">
        <ele>222.8</ele>
        <time>2018-02-03T09:01:04Z</time>
      </trkpt>
      <trkpt lat="43.21624" lon="5.44514">
        <ele>222.6</ele>
        <time>2018-02-03T09:01:09Z</time>
      </trkpt>
      <trkpt lat="43.21619" lon="5.44516">
        <ele>223.2</ele>
        <time>2018-02-03T09:01:14Z</time>
      </trkpt>
      <trkpt lat="43.21613" lon="5.4452">
        <ele>219.2</ele>
        <time>2018-02-03T09:01:19Z</time>
      </trkpt>
      <trkpt lat="43.21608" lon="5.44523">
        <ele>224.4</ele>
        <time>2018-02-03T09:01:24Z</time>
      </trkpt>
      <trkpt lat="43.21604" lon="5.44527">
        <ele>225</ele>
        <time>2018-02-03T09:01:29Z</time>
      </trkpt>
      <trkpt lat="43.21599" lon="5.44532">
        <ele>223.8</ele>
        <time>2018-02-03T09:01:34Z</time>
      </trkpt>
      <trkpt lat="43.21595" lon="5.44536">
        <ele>218.6</ele>
        <time>2018-02-03T09:01:39Z</time>
      </trkpt>
      <trkpt lat="43.2159" lon="5.4454">
        <ele>221.2</ele>
        <time>2018-02-03T09:01:44Z</time>
      </trkpt>
      <trkpt lat="43.21585" lon="5.44545">
        <ele>221.2</ele>
        <time>2018-02-03T09:01:49Z</time>
      </trkpt>
      <trkpt lat="43.21581" lon="5.44549">
        <ele>223.8</ele>
        <time>2018-02-03T09:01:54Z</time>
      </trkpt>
      <trkpt lat="43.21577" lon="5.44554">
        <ele>222.8</ele>
        <time>2018-02-03T09:01:59Z</time>
      </trkpt>
      <trkpt lat="43.21573" lon="5.44559">
        <ele>224</ele>
        <time>2018-02-03T09:02:04Z</time>
      </trkpt>
      <trkpt lat="43.21568" lon="5.44564">
        <ele>221.6</ele>
        <time>2018-02-03T09:02:09Z</time>
      </trkpt>
      <trkpt lat="43.21564" lon="5.44569">
        <ele>218</ele>
        <time>2018-02-03T09:02:14Z</time>
      </trkpt>
      <trkpt lat="43.2156" lon="5.44573">
        <ele>225.2</ele>
        <time>2018-02-03T09:02:19Z</time>
      </trkpt>
      <trkpt lat="43.21556" lon="5.44575">
        <ele>221.8</ele>
        <time>2018-02-03T09:02:24Z</time>
      </trkpt>
      <trkpt lat="43.21554" lon="5.44574">
        <ele>223.2</ele>
        <time>2018-02-03T09:02:29Z</time>
      </trkpt>
      <trkpt lat="43.21553" lon="5.44576">
        <ele>222</ele>
        <time>2018-02-03T09:02:34Z</time>
      </trkpt>
      <trkpt lat="43.21551" lon="5.44583">
        <ele>221</ele>
        <time>2018-02-03T09:02:39Z</time>
      </trkpt>
      <trkpt lat="43.21549" lon="5.4459">
        <ele>221</ele>
        <time>2018-02-03T09:02:44Z</time>
      </trkpt>
      <trkpt lat="43.21545" lon="5.44595">
        <ele>225</ele>
        <time>2018-02-03T09:02:49Z</time>
      </trkpt>
      <trkpt lat="43.21541" lon="5.44599">
        <ele>222.2</ele>
        <time>2018-02-03T09:02:54Z</time>
      </trkpt>
      <trkpt lat="43.21538" lon="5.44604">
        <ele>220.6</ele>
        <time>2018-02-03T09:02:59Z</time>
      </trkpt>
      <trkpt lat="43.21535" lon="5.44609">
        <ele>220.8</ele>
        <time>2018-02-03T09:03:04Z</time>
      </trkpt>
      <trkpt lat="43.21531" lon="5.44613">
        <ele>220.2</ele>
        <time>2018-02-03T09:03:09Z</time>
      </trkpt>
      <trkpt lat="43.21527" lon="5.44619">
        <ele>224</ele>
        <time>2018-02-03T09:03:14Z</time>
      </trkpt>
      <trkpt lat="43.21523" lon="5.44623">
        <ele>223.2</ele>
        <time>2018-02-03T09:03:19Z</time>
      </trkpt>
      <trkpt lat="43.21519" lon="5.44627">
        <ele>223.8</ele>
        <time>2018-02-03T09:03:24Z</time>
      </trkpt>
      <trkpt lat="43.21515" lon="5.44631">
        <ele>223.2</ele>
        <time>2018-02-03T09:03:29Z</time>
      </trkpt>
      <trkpt lat="43.2151" lon="5.44635">
        <ele>225.4</ele>
        <time>2018-02-03T09:03:34Z</time>
      </trkpt>
      <trkpt lat="43.21507" lon="5.44638">
        <ele>225.4</ele>
        <time>2018-02-03T09:03:39Z</time>
      </trkpt>
      <trkpt lat="43.21506" lon="5.44638">
        <ele>225.4</ele>
        <time>2018-02-03T09:03:44Z</time>
      </trkpt>
      <trkpt lat="43.21505" lon="5.44643">
        <ele>223</ele>
        <time>2018-02-03T09:03:49Z</time>
      </trkpt>
      <trkpt lat="43.21501" lon="5.44647">
        <ele>225.4</ele>
        <time>2018-02-03T09:03:54Z</time>
      </trkpt>
      <trkpt lat="43.21498" lon="5.4465">
        <ele>222.6</ele>
        <time>2018-02-03T09:03:59Z</time>
      </trkpt>
      <trkpt lat="43.21494" lon="5.44654">
        <ele>222</ele>
        <time>2018-02-03T09:04:04Z</time>
      </trkpt>
      <trkpt lat="43.21491" lon="5.44658">
        <ele>218.6</ele>
        <time>2018-02-03T09:04:09Z</time>
      </trkpt>
      <trkpt lat="43.21488" lon="5.44662">
        <ele>226.2</ele>
        <time>2018-02-03T09:04:14Z</time>
      </trkpt>
      <trkpt lat="43.21485" lon="5.44665">
        <ele>224</ele>
        <time>2018-02-03T09:04:19Z</time>
      </trkpt>
      <trkpt lat="43.21481" lon="5.44668">
        <ele>229.6</ele>
        <time>2018-02-03T09:04:24Z</time>
      </trkpt>
      <trkpt lat="43.21478" lon="5.44672">
        <ele>226.2</ele>
        <time>2018-02-03T09:04:29Z</time>
      </trkpt>
      <trkpt lat="43.21476" lon="5.44675">
        <ele>222.4</ele>
        <time>2018-02-03T09:04:34Z</time>
      </trkpt>
      <trkpt lat="43.21474" lon="5.4468">
        <ele>224.2</ele>
        <time>2018-02-03T09:04:39Z</time>
      </trkpt>
      <trkpt lat="43.21471" lon="5.44684">
        <ele>221.4</ele>
        <time>2018-02-03T09:04:44Z</time>
      </trkpt>
      <trkpt lat="43.21469" lon="5.44688">
        <ele>222.8</ele>
        <time>2018-02-03T09:04:49Z</time>
      </trkpt>
      <trkpt lat="43.21467" lon="5.44693">
        <ele>225.6</ele>
        <time>2018-02-03T09:04:54Z</time>
      </trkpt>
      <trkpt lat="43.21465" lon="5.44698">
        <ele>227.4</ele>
        <time>2018-02-03T09:04:59Z</time>
      </trkpt>
      <trkpt lat="43.21462" lon="5.44703">
        <ele>229.6</ele>
        <time>2018-02-03T09:05:19Z</time>
      </trkpt>
      <trkpt lat="43.2146" lon="5.44709">
        <ele>227.2</ele>
        <time>2018-02-03T09:05:24Z</time>
      </trkpt>
      <trkpt lat="43.21459" lon="5.44715">
        <ele>231.8</ele>
        <time>2018-02-03T09:05:29Z</time>
      </trkpt>
      <trkpt lat="43.21459" lon="5.4472">
        <ele>230.6</ele>
        <time>2018-02-03T09:05:34Z</time>
      </trkpt>
      <trkpt lat="43.21457" lon="5.44724">
        <ele>227.8</ele>
        <time>2018-02-03T09:05:39Z</time>
      </trkpt>
      <trkpt lat="43.21455" lon="5.44729">
        <ele>229.4</ele>
        <time>2018-02-03T09:05:44Z</time>
      </trkpt>
      <trkpt lat="43.21454" lon="5.44735">
        <ele>231.6</ele>
        <time>2018-02-03T09:05:49Z</time>
      </trkpt>
      <trkpt lat="43.21453" lon="5.4474">
        <ele>230.2</ele>
        <time>2018-02-03T09:05:54Z</time>
      </trkpt>
      <trkpt lat="43.21452" lon="5.44746">
        <ele>233.8</ele>
        <time>2018-02-03T09:05:59Z</time>
      </trkpt>
      <trkpt lat="43.21451" lon="5.44751">
        <ele>231.2</ele>
        <time>2018-02-03T09:06:04Z</time>
      </trkpt>
      <trkpt lat="43.21449" lon="5.44757">
        <ele>229.6</ele>
        <time>2018-02-03T09:06:09Z</time>
      </trkpt>
      <trkpt lat="43.21446" lon="5.44761">
        <ele>234.8</ele>
        <time>2018-02-03T09:06:14Z</time>
      </trkpt>
      <trkpt lat="43.21442" lon="5.44766">
        <ele>233</ele>
        <time>2018-02-03T09:06:19Z</time>
      </trkpt>
      <trkpt lat="43.21438" lon="5.44767">
        <ele>228.2</ele>
        <time>2018-02-03T09:06:24Z</time>
      </trkpt>
      <trkpt lat="43.21435" lon="5.44771">
        <ele>228.8</ele>
        <time>2018-02-03T09:06:29Z</time>
      </trkpt>
      <trkpt lat="43.21433" lon="5.44776">
        <ele>229.4</ele>
        <time>2018-02-03T09:06:34Z</time>
      </trkpt>
      <trkpt lat="43.21431" lon="5.44778">
        <ele>229</ele>
        <time>2018-02-03T09:06:39Z</time>
      </trkpt>
      <trkpt lat="43.21431" lon="5.44778">
        <ele>228.4</ele>
        <time>2018-02-03T09:06:44Z</time>
      </trkpt>
      <trkpt lat="43.21428" lon="5.44778">
        <ele>231.8</ele>
        <time>2018-02-03T09:06:49Z</time>
      </trkpt>
      <trkpt lat="43.21424" lon="5.44778">
        <ele>228.4</ele>
        <time>2018-02-03T09:06:54Z</time>
      </trkpt>
      <trkpt lat="43.2142" lon="5.44779">
        <ele>230.4</ele>
        <time>2018-02-03T09:06:59Z</time>
      </trkpt>
      <trkpt lat="43.21417" lon="5.44778">
        <ele>230</ele>
        <time>2018-02-03T09:07:04Z</time>
      </trkpt>
      <trkpt lat="43.21414" lon="5.44777">
        <ele>230.6</ele>
        <time>2018-02-03T09:07:09Z</time>
      </trkpt>
      <trkpt lat="43.21412" lon="5.44776">
        <ele>229.8</ele>
        <time>2018-02-03T09:07:14Z</time>
      </trkpt>
      <trkpt lat="43.2141" lon="5.44778">
        <ele>232</ele>
        <time>2018-02-03T09:07:19Z</time>
      </trkpt>
      <trkpt lat="43.21408" lon="5.44781">
        <ele>236.8</ele>
        <time>2018-02-03T09:07:24Z</time>
      </trkpt>
      <trkpt lat="43.21406" lon="5.44784">
        <ele>230</ele>
        <time>2018-02-03T09:07:29Z</time>
      </trkpt>
      <trkpt lat="43.21403" lon="5.44787">
        <ele>235</ele>
        <time>2018-02-03T09:07:34Z</time>
      </trkpt>
      <trkpt lat="43.21401" lon="5.44791">
        <ele>238</ele>
        <time>2018-02-03T09:07:44Z</time>
      </trkpt>
      <trkpt lat="43.214" lon="5.44792">
        <ele>236.6</ele>
        <time>2018-02-03T09:07:49Z</time>
      </trkpt>
      <trkpt lat="43.21397" lon="5.44792">
        <ele>234.8</ele>
        <time>2018-02-03T09:07:54Z</time>
      </trkpt>
      <trkpt lat="43.21396" lon="5.44793">
        <ele>235.4</ele>
        <time>2018-02-03T09:07:59Z</time>
      </trkpt>
      <trkpt lat="43.21392" lon="5.44792">
        <ele>234.2</ele>
        <time>2018-02-03T09:08:04Z</time>
      </trkpt>
      <trkpt lat="43.21391" lon="5.44791">
        <ele>236.6</ele>
        <time>2018-02-03T09:08:24Z</time>
      </trkpt>
      <trkpt lat="43.21389" lon="5.44791">
        <ele>238.4</ele>
        <time>2018-02-03T09:09:34Z</time>
      </trkpt>
      <trkpt lat="43.21386" lon="5.4479">
        <ele>243.4</ele>
        <time>2018-02-03T09:09:39Z</time>
      </trkpt>
      <trkpt lat="43.21384" lon="5.44788">
        <ele>241.2</ele>
        <time>2018-02-03T09:12:15Z</time>
      </trkpt>
      <trkpt lat="43.21384" lon="5.44788">
        <ele>243.8</ele>
        <time>2018-02-03T09:12:20Z</time>
      </trkpt>
      <trkpt lat="43.21387" lon="5.44784">
        <ele>243.4</ele>
        <time>2018-02-03T09:13:05Z</time>
      </trkpt>
      <trkpt lat="43.21388" lon="5.44784">
        <ele>241.4</ele>
        <time>2018-02-03T09:13:10Z</time>
      </trkpt>
      <trkpt lat="43.21391" lon="5.44782">
        <ele>245.8</ele>
        <time>2018-02-03T09:13:25Z</time>
      </trkpt>
      <trkpt lat="43.21393" lon="5.44783">
        <ele>251</ele>
        <time>2018-02-03T09:13:35Z</time>
      </trkpt>
      <trkpt lat="43.21396" lon="5.44782">
        <ele>248.4</ele>
        <time>2018-02-03T09:16:45Z</time>
      </trkpt>
      <trkpt lat="43.21395" lon="5.44783">
        <ele>247.8</ele>
        <time>2018-02-03T09:16:55Z</time>
      </trkpt>
      <trkpt lat="43.21393" lon="5.44783">
        <ele>246.2</ele>
        <time>2018-02-03T09:17:35Z</time>
      </trkpt>
      <trkpt lat="43.21391" lon="5.44783">
        <ele>247</ele>
        <time>2018-02-03T09:17:40Z</time>
      </trkpt>
      <trkpt lat="43.21388" lon="5.44784">
        <ele>246.4</ele>
        <time>2018-02-03T09:18:05Z</time>
      </trkpt>
      <trkpt lat="43.21385" lon="5.44784">
        <ele>244</ele>
        <time>2018-02-03T09:18:10Z</time>
      </trkpt>
      <trkpt lat="43.21384" lon="5.44785">
        <ele>242</ele>
        <time>2018-02-03T09:18:15Z</time>
      </trkpt>
      <trkpt lat="43.21385" lon="5.44788">
        <ele>246.6</ele>
        <time>2018-02-03T09:18:20Z</time>
      </trkpt>
      <trkpt lat="43.21386" lon="5.44788">
        <ele>246.6</ele>
        <time>2018-02-03T09:18:25Z</time>
      </trkpt>
      <trkpt lat="43.21389" lon="5.4479">
        <ele>246</ele>
        <time>2018-02-03T09:18:30Z</time>
      </trkpt>
      <trkpt lat="43.21392" lon="5.44792">
        <ele>244.2</ele>
        <time>2018-02-03T09:18:35Z</time>
      </trkpt>
      <trkpt lat="43.21394" lon="5.44792">
        <ele>247</ele>
        <time>2018-02-03T09:18:40Z</time>
      </trkpt>
      <trkpt lat="43.21398" lon="5.44791">
        <ele>248</ele>
        <time>2018-02-03T09:18:45Z</time>
      </trkpt>
      <trkpt lat="43.21403" lon="5.4479">
        <ele>246.2</ele>
        <time>2018-02-03T09:18:50Z</time>
      </trkpt>
      <trkpt lat="43.21404" lon="5.44787">
        <ele>239.4</ele>
        <time>2018-02-03T09:18:55Z</time>
      </trkpt>
      <trkpt lat="43.21406" lon="5.44783">
        <ele>238.4</ele>
        <time>2018-02-03T09:19:00Z</time>
      </trkpt>
      <trkpt lat="43.21409" lon="5.44779">
        <ele>238.2</ele>
        <time>2018-02-03T09:19:05Z</time>
      </trkpt>
      <trkpt lat="43.21412" lon="5.44776">
        <ele>236.4</ele>
        <time>2018-02-03T09:19:10Z</time>
      </trkpt>
      <trkpt lat="43.21413" lon="5.44777">
        <ele>233.2</ele>
        <time>2018-02-03T09:19:15Z</time>
      </trkpt>
      <trkpt lat="43.21415" lon="5.44777">
        <ele>233.8</ele>
        <time>2018-02-03T09:19:20Z</time>
      </trkpt>
      <trkpt lat="43.21418" lon="5.44778">
        <ele>236.6</ele>
        <time>2018-02-03T09:19:25Z</time>
      </trkpt>
      <trkpt lat="43.21419" lon="5.44778">
        <ele>237.6</ele>
        <time>2018-02-03T09:19:30Z</time>
      </trkpt>
      <trkpt lat="43.21423" lon="5.44778">
        <ele>237.4</ele>
        <time>2018-02-03T09:19:35Z</time>
      </trkpt>
      <trkpt lat="43.21426" lon="5.44778">
        <ele>235.8</ele>
        <time>2018-02-03T09:19:40Z</time>
      </trkpt>
      <trkpt lat="43.21428" lon="5.44777">
        <ele>235.2</ele>
        <time>2018-02-03T09:19:45Z</time>
      </trkpt>
      <trkpt lat="43.21431" lon="5.44777">
        <ele>235.6</ele>
        <time>2018-02-03T09:19:50Z</time>
      </trkpt>
      <trkpt lat="43.21432" lon="5.44778">
        <ele>233</ele>
        <time>2018-02-03T09:19:55Z</time>
      </trkpt>
      <trkpt lat="43.21435" lon="5.44775">
        <ele>233.4</ele>
        <time>2018-02-03T09:20:00Z</time>
      </trkpt>
      <trkpt lat="43.21437" lon="5.44771">
        <ele>230</ele>
        <time>2018-02-03T09:20:05Z</time>
      </trkpt>
      <trkpt lat="43.21439" lon="5.44766">
        <ele>228.6</ele>
        <time>2018-02-03T09:20:10Z</time>
      </trkpt>
      <trkpt lat="43.2144" lon="5.4476">
        <ele>227.6</ele>
        <time>2018-02-03T09:20:15Z</time>
      </trkpt>
      <trkpt lat="43.21441" lon="5.44759">
        <ele>230.6</ele>
        <time>2018-02-03T09:20:20Z</time>
      </trkpt>
      <trkpt lat="43.21447" lon="5.44755">
        <ele>228.8</ele>
        <time>2018-02-03T09:20:25Z</time>
      </trkpt>
      <trkpt lat="43.2145" lon="5.44748">
        <ele>230.6</ele>
        <time>2018-02-03T09:20:30Z</time>
      </trkpt>
      <trkpt lat="43.21452" lon="5.4474">
        <ele>227.8</ele>
        <time>2018-02-03T09:20:35Z</time>
      </trkpt>
      <trkpt lat="43.21454" lon="5.44732">
        <ele>224.4</ele>
        <time>2018-02-03T09:20:40Z</time>
      </trkpt>
      <trkpt lat="43.21456" lon="5.44724">
        <ele>225.4</ele>
        <time>2018-02-03T09:20:45Z</time>
      </trkpt>
      <trkpt lat="43.21458" lon="5.44717">
        <ele>225.2</ele>
        <time>2018-02-03T09:20:50Z</time>
      </trkpt>
      <trkpt lat="43.2146" lon="5.44711">
        <ele>225</ele>
        <time>2018-02-03T09:20:55Z</time>
      </trkpt>
      <trkpt lat="43.21461" lon="5.44704">
        <ele>226.8</ele>
        <time>2018-02-03T09:21:00Z</time>
      </trkpt>
      <trkpt lat="43.21464" lon="5.44697">
        <ele>225</ele>
        <time>2018-02-03T09:21:05Z</time>
      </trkpt>
      <trkpt lat="43.21467" lon="5.44691">
        <ele>226</ele>
        <time>2018-02-03T09:21:10Z</time>
      </trkpt>
      <trkpt lat="43.2147" lon="5.44685">
        <ele>227.8</ele>
        <time>2018-02-03T09:21:15Z</time>
      </trkpt>
      <trkpt lat="43.21473" lon="5.44679">
        <ele>225.2</ele>
        <time>2018-02-03T09:21:20Z</time>
      </trkpt>
      <trkpt lat="43.21477" lon="5.44673">
        <ele>223.8</ele>
        <time>2018-02-03T09:21:25Z</time>
      </trkpt>
      <trkpt lat="43.21481" lon="5.44668">
        <ele>221.2</ele>
        <time>2018-02-03T09:21:30Z</time>
      </trkpt>
      <trkpt lat="43.21486" lon="5.44663">
        <ele>221.8</ele>
        <time>2018-02-03T09:21:35Z</time>
      </trkpt>
      <trkpt lat="43.2149" lon="5.44659">
        <ele>222.4</ele>
        <time>2018-02-03T09:21:40Z</time>
      </trkpt>
      <trkpt lat="43.21494" lon="5.44653">
        <ele>223.4</ele>
        <time>2018-02-03T09:21:45Z</time>
      </trkpt>
      <trkpt lat="43.21498" lon="5.44648">
        <ele>221</ele>
        <time>2018-02-03T09:21:50Z</time>
      </trkpt>
      <trkpt lat="43.21503" lon="5.44645">
        <ele>222</ele>
        <time>2018-02-03T09:21:55Z</time>
      </trkpt>
      <trkpt lat="43.21507" lon="5.44641">
        <ele>222.4</ele>
        <time>2018-02-03T09:22:00Z</time>
      </trkpt>
      <trkpt lat="43.21511" lon="5.44637">
        <ele>220.6</ele>
        <time>2018-02-03T09:22:05Z</time>
      </trkpt>
      <trkpt lat="43.21515" lon="5.44633">
        <ele>220</ele>
        <time>2018-02-03T09:22:10Z</time>
      </trkpt>
      <trkpt lat="43.21519" lon="5.44629">
        <ele>224.2</ele>
        <time>2018-02-03T09:22:15Z</time>
      </trkpt>
      <trkpt lat="43.21523" lon="5.44625">
        <ele>222</ele>
        <time>2018-02-03T09:22:20Z</time>
      </trkpt>
      <trkpt lat="43.21527" lon="5.44619">
        <ele>220.6</ele>
        <time>2018-02-03T09:22:25Z</time>
      </trkpt>
      <trkpt lat="43.2153" lon="5.44614">
        <ele>221.2</ele>
        <time>2018-02-03T09:22:30Z</time>
      </trkpt>
      <trkpt lat="43.21534" lon="5.44609">
        <ele>223.8</ele>
        <time>2018-02-03T09:22:35Z</time>
      </trkpt>
      <trkpt lat="43.21538" lon="5.44604">
        <ele>222.2</ele>
        <time>2018-02-03T09:22:40Z</time>
      </trkpt>
      <trkpt lat="43.21542" lon="5.44599">
        <ele>219.8</ele>
        <time>2018-02-03T09:22:45Z</time>
      </trkpt>
      <trkpt lat="43.21546" lon="5.44594">
        <ele>216.8</ele>
        <time>2018-02-03T09:22:50Z</time>
      </trkpt>
      <trkpt lat="43.2155" lon="5.44588">
        <ele>217.6</ele>
        <time>2018-02-03T09:22:55Z</time>
      </trkpt>
      <trkpt lat="43.21553" lon="5.44582">
        <ele>217.6</ele>
        <time>2018-02-03T09:23:00Z</time>
      </trkpt>
      <trkpt lat="43.21557" lon="5.44577">
        <ele>216.6</ele>
        <time>2018-02-03T09:23:05Z</time>
      </trkpt>
      <trkpt lat="43.21562" lon="5.44571">
        <ele>220.4</ele>
        <time>2018-02-03T09:23:10Z</time>
      </trkpt>
      <trkpt lat="43.21566" lon="5.44566">
        <ele>217.4</ele>
        <time>2018-02-03T09:23:15Z</time>
      </trkpt>
      <trkpt lat="43.2157" lon="5.44562">
        <ele>217.4</ele>
        <time>2018-02-03T09:23:20Z</time>
      </trkpt>
      <trkpt lat="43.21574" lon="5.44557">
        <ele>220</ele>
        <time>2018-02-03T09:23:25Z</time>
      </trkpt>
      <trkpt lat="43.21579" lon="5.44552">
        <ele>220.2</ele>
        <time>2018-02-03T09:23:30Z</time>
      </trkpt>
      <trkpt lat="43.21583" lon="5.44548">
        <ele>221</ele>
        <time>2018-02-03T09:23:35Z</time>
      </trkpt>
      <trkpt lat="43.21587" lon="5.44543">
        <ele>219.2</ele>
        <time>2018-02-03T09:23:40Z</time>
      </trkpt>
      <trkpt lat="43.21591" lon="5.44539">
        <ele>220.2</ele>
        <time>2018-02-03T09:23:45Z</time>
      </trkpt>
      <trkpt lat="43.21596" lon="5.44535">
        <ele>218.8</ele>
        <time>2018-02-03T09:23:50Z</time>
      </trkpt>
      <trkpt lat="43.216" lon="5.44531">
        <ele>222.6</ele>
        <time>2018-02-03T09:23:55Z</time>
      </trkpt>
      <trkpt lat="43.21603" lon="5.44527">
        <ele>224.2</ele>
        <time>2018-02-03T09:24:00Z</time>
      </trkpt>
      <trkpt lat="43.21607" lon="5.44524">
        <ele>225</ele>
        <time>2018-02-03T09:24:05Z</time>
      </trkpt>
      <trkpt lat="43.21611" lon="5.44521">
        <ele>223.2</ele>
        <time>2018-02-03T09:24:10Z</time>
      </trkpt>
      <trkpt lat="43.21616" lon="5.44518">
        <ele>222</ele>
        <time>2018-02-03T09:24:15Z</time>
      </trkpt>
      <trkpt lat="43.21621" lon="5.44515">
        <ele>221.6</ele>
        <time>2018-02-03T09:24:20Z</time>
      </trkpt>
      <trkpt lat="43.21625" lon="5.44513">
        <ele>223.2</ele>
        <time>2018-02-03T09:24:25Z</time>
      </trkpt>
      <trkpt lat="43.2163" lon="5.44511">
        <ele>222.6</ele>
        <time>2018-02-03T09:24:30Z</time>
      </trkpt>
      <trkpt lat="43.21635" lon="5.44511">
        <ele>224.4</ele>
        <time>2018-02-03T09:24:35Z</time>
      </trkpt>
      <trkpt lat="43.2164" lon="5.4451">
        <ele>224.6</ele>
        <time>2018-02-03T09:24:40Z</time>
      </trkpt>
      <trkpt lat="43.21645" lon="5.4451">
        <ele>227.6</ele>
        <time>2018-02-03T09:24:45Z</time>
      </trkpt>
      <trkpt lat="43.2165" lon="5.44511">
        <ele>225.4</ele>
        <time>2018-02-03T09:24:50Z</time>
      </trkpt>
      <trkpt lat="43.21656" lon="5.44512">
        <ele>227.8</ele>
        <time>2018-02-03T09:24:55Z</time>
      </trkpt>
      <trkpt lat="43.2166" lon="5.44514">
        <ele>227.2</ele>
        <time>2018-02-03T09:25:00Z</time>
      </trkpt>
      <trkpt lat="43.21665" lon="5.44517">
        <ele>228.2</ele>
        <time>2018-02-03T09:25:05Z</time>
      </trkpt>
      <trkpt lat="43.2167" lon="5.4452">
        <ele>228.8</ele>
        <time>2018-02-03T09:25:10Z</time>
      </trkpt>
      <trkpt lat="43.21674" lon="5.44525">
        <ele>227</ele>
        <time>2018-02-03T09:25:15Z</time>
      </trkpt>
      <trkpt lat="43.21677" lon="5.44531">
        <ele>230</ele>
        <time>2018-02-03T09:25:20Z</time>
      </trkpt>
      <trkpt lat="43.2168" lon="5.44537">
        <ele>227</ele>
        <time>2018-02-03T09:25:25Z</time>
      </trkpt>
      <trkpt lat="43.21682" lon="5.44544">
        <ele>228.4</ele>
        <time>2018-02-03T09:25:30Z</time>
      </trkpt>
      <trkpt lat="43.21684" lon="5.44552">
        <ele>225.2</ele>
        <time>2018-02-03T09:25:35Z</time>
      </trkpt>
      <trkpt lat="43.21686" lon="5.44559">
        <ele>228.4</ele>
        <time>2018-02-03T09:25:40Z</time>
      </trkpt>
      <trkpt lat="43.21688" lon="5.44566">
        <ele>227.8</ele>
        <time>2018-02-03T09:25:45Z</time>
      </trkpt>
      <trkpt lat="43.2169" lon="5.44573">
        <ele>227</ele>
        <time>2018-02-03T09:25:50Z</time>
      </trkpt>
      <trkpt lat="43.21693" lon="5.4458">
        <ele>227.6</ele>
        <time>2018-02-03T09:25:55Z</time>
      </trkpt>
      <trkpt lat="43.21695" lon="5.44588">
        <ele>228.8</ele>
        <time>2018-02-03T09:26:00Z</time>
      </trkpt>
      <trkpt lat="43.21699" lon="5.44595">
        <ele>225.4</ele>
        <time>2018-02-03T09:26:05Z</time>
      </trkpt>
      <trkpt lat="43.21702" lon="5.44601">
        <ele>225.4</ele>
        <time>2018-02-03T09:26:10Z</time>
      </trkpt>
      <trkpt lat="43.21705" lon="5.44606">
        <ele>226.6</ele>
        <time>2018-02-03T09:26:15Z</time>
      </trkpt>
      <trkpt lat="43.21708" lon="5.44613">
        <ele>226.2</ele>
        <time>2018-02-03T09:26:20Z</time>
      </trkpt>
      <trkpt lat="43.21711" lon="5.4462">
        <ele>228</ele>
        <time>2018-02-03T09:26:25Z</time>
      </trkpt>
      <trkpt lat="43.21714" lon="5.44626">
        <ele>228</ele>
        <time>2018-02-03T09:26:30Z</time>
      </trkpt>
      <trkpt lat="43.21718" lon="5.44632">
        <ele>229.4</ele>
        <time>2018-02-03T09:26:35Z</time>
      </trkpt>
      <trkpt lat="43.21722" lon="5.44637">
        <ele>229</ele>
        <time>2018-02-03T09:26:40Z</time>
      </trkpt>
      <trkpt lat="43.21725" lon="5.44642">
        <ele>227.4</ele>
        <time>2018-02-03T09:26:45Z</time>
      </trkpt>
      <trkpt lat="43.21729" lon="5.44648">
        <ele>229</ele>
        <time>2018-02-03T09:26:50Z</time>
      </trkpt>
      <trkpt lat="43.21734" lon="5.44653">
        <ele>227</ele>
        <time>2018-02-03T09:26:55Z</time>
      </trkpt>
      <trkpt lat="43.2174" lon="5.44657">
        <ele>226.6</ele>
        <time>2018-02-03T09:27:01Z</time>
      </trkpt>
      <trkpt lat="43.21744" lon="5.44661">
        <ele>226.6</ele>
        <time>2018-02-03T09:27:06Z</time>
      </trkpt>
      <trkpt lat="43.21749" lon="5.44664">
        <ele>226.6</ele>
        <time>2018-02-03T09:27:11Z</time>
      </trkpt>
      <trkpt lat="43.21754" lon="5.44666">
        <ele>226.8</ele>
        <time>2018-02-03T09:27:16Z</time>
      </trkpt>
      <trkpt lat="43.21759" lon="5.44668">
        <ele>226.2</ele>
        <time>2018-02-03T09:27:21Z</time>
      </trkpt>
      <trkpt lat="43.21765" lon="5.4467">
        <ele>226.4</ele>
        <time>2018-02-03T09:27:26Z</time>
      </trkpt>
      <trkpt lat="43.2177" lon="5.44672">
        <ele>226.4</ele>
        <time>2018-02-03T09:27:31Z</time>
      </trkpt>
      <trkpt lat="43.21776" lon="5.44674">
        <ele>227.8</ele>
        <time>2018-02-03T09:27:36Z</time>
      </trkpt>
      <trkpt lat="43.21781" lon="5.44676">
        <ele>224.8</ele>
        <time>2018-02-03T09:27:41Z</time>
      </trkpt>
      <trkpt lat="43.21786" lon="5.44678">
        <ele>225.6</ele>
        <time>2018-02-03T09:27:46Z</time>
      </trkpt>
      <trkpt lat="43.21791" lon="5.44681">
        <ele>221</ele>
        <time>2018-02-03T09:27:51Z</time>
      </trkpt>
      <trkpt lat="43.21795" lon="5.44684">
        <ele>224</ele>
        <time>2018-02-03T09:27:56Z</time>
      </trkpt>
      <trkpt lat="43.21801" lon="5.44685">
        <ele>222.4</ele>
        <time>2018-02-03T09:28:01Z</time>
      </trkpt>
      <trkpt lat="43.21806" lon="5.44686">
        <ele>223.6</ele>
        <time>2018-02-03T09:28:06Z</time>
      </trkpt>
      <trkpt lat="43.21811" lon="5.44688">
        <ele>221.6</ele>
        <time>2018-02-03T09:28:11Z</time>
      </trkpt>
      <trkpt lat="43.21816" lon="5.44689">
        <ele>221.8</ele>
        <time>2018-02-03T09:28:16Z</time>
      </trkpt>
      <trkpt lat="43.21821" lon="5.44692">
        <ele>219.6</ele>
        <time>2018-02-03T09:28:21Z</time>
      </trkpt>
      <trkpt lat="43.21825" lon="5.44693">
        <ele>220.8</ele>
        <time>2018-02-03T09:28:26Z</time>
      </trkpt>
      <trkpt lat="43.21826" lon="5.44697">
        <ele>218.6</ele>
        <time>2018-02-03T09:28:31Z</time>
      </trkpt>
      <trkpt lat="43.21824" lon="5.44701">
        <ele>219</ele>
        <time>2018-02-03T09:28:36Z</time>
      </trkpt>
      <trkpt lat="43.21822" lon="5.44705">
        <ele>218.6</ele>
        <time>2018-02-03T09:28:41Z</time>
      </trkpt>
      <trkpt lat="43.21823" lon="5.44706">
        <ele>216.2</ele>
        <time>2018-02-03T09:28:46Z</time>
      </trkpt>
      <trkpt lat="43.21823" lon="5.44708">
        <ele>214.2</ele>
        <time>2018-02-03T09:28:51Z</time>
      </trkpt>
      <trkpt lat="43.21822" lon="5.44711">
        <ele>215.6</ele>
        <time>2018-02-03T09:28:56Z</time>
      </trkpt>
      <trkpt lat="43.21821" lon="5.44712">
        <ele>216.8</ele>
        <time>2018-02-03T09:29:01Z</time>
      </trkpt>
      <trkpt lat="43.2182" lon="5.44713">
        <ele>213.6</ele>
        <time>2018-02-03T09:29:06Z</time>
      </trkpt>
      <trkpt lat="43.21818" lon="5.44713">
        <ele>210.6</ele>
        <time>2018-02-03T09:29:11Z</time>
      </trkpt>
      <trkpt lat="43.21817" lon="5.44713">
        <ele>210.6</ele>
        <time>2018-02-03T09:29:16Z</time>
      </trkpt>
      <trkpt lat="43.21815" lon="5.44713">
        <ele>212.2</ele>
        <time>2018-02-03T09:29:21Z</time>
      </trkpt>
      <trkpt lat="43.21813" lon="5.44715">
        <ele>213.8</ele>
        <time>2018-02-03T09:29:26Z</time>
      </trkpt>
      <trkpt lat="43.21813" lon="5.44717">
        <ele>212</ele>
        <time>2018-02-03T09:29:31Z</time>
      </trkpt>
      <trkpt lat="43.21812" lon="5.4472">
        <ele>209.6</ele>
        <time>2018-02-03T09:29:36Z</time>
      </trkpt>
      <trkpt lat="43.2181" lon="5.4472">
        <ele>207.8</ele>
        <time>2018-02-03T09:29:41Z</time>
      </trkpt>
      <trkpt lat="43.21808" lon="5.44721">
        <ele>207.4</ele>
        <time>2018-02-03T09:29:46Z</time>
      </trkpt>
      <trkpt lat="43.21806" lon="5.4472">
        <ele>205.4</ele>
        <time>2018-02-03T09:29:51Z</time>
      </trkpt>
      <trkpt lat="43.21805" lon="5.44721">
        <ele>206.4</ele>
        <time>2018-02-03T09:29:56Z</time>
      </trkpt>
      <trkpt lat="43.21804" lon="5.44723">
        <ele>205.4</ele>
        <time>2018-02-03T09:30:01Z</time>
      </trkpt>
      <trkpt lat="43.21803" lon="5.44724">
        <ele>203.8</ele>
        <time>2018-02-03T09:30:06Z</time>
      </trkpt>
      <trkpt lat="43.21802" lon="5.44726">
        <ele>205</ele>
        <time>2018-02-03T09:30:11Z</time>
      </trkpt>
      <trkpt lat="43.21802" lon="5.4473">
        <ele>203.6</ele>
        <time>2018-02-03T09:30:16Z</time>
      </trkpt>
      <trkpt lat="43.21801" lon="5.44731">
        <ele>203.2</ele>
        <time>2018-02-03T09:30:21Z</time>
      </trkpt>
      <trkpt lat="43.21801" lon="5.44733">
        <ele>204</ele>
        <time>2018-02-03T09:30:26Z</time>
      </trkpt>
      <trkpt lat="43.21798" lon="5.44733">
        <ele>204</ele>
        <time>2018-02-03T09:30:31Z</time>
      </trkpt>
      <trkpt lat="43.21795" lon="5.4473">
        <ele>202</ele>
        <time>2018-02-03T09:30:36Z</time>
      </trkpt>
      <trkpt lat="43.21791" lon="5.44727">
        <ele>199</ele>
        <time>2018-02-03T09:30:41Z</time>
      </trkpt>
      <trkpt lat="43.21789" lon="5.44728">
        <ele>199.4</ele>
        <time>2018-02-03T09:30:46Z</time>
      </trkpt>
      <trkpt lat="43.21789" lon="5.44728">
        <ele>199.8</ele>
        <time>2018-02-03T09:30:51Z</time>
      </trkpt>
      <trkpt lat="43.21788" lon="5.44732">
        <ele>199.8</ele>
        <time>2018-02-03T09:31:01Z</time>
      </trkpt>
      <trkpt lat="43.21788" lon="5.44734">
        <ele>200.2</ele>
        <time>2018-02-03T09:31:06Z</time>
      </trkpt>
      <trkpt lat="43.21788" lon="5.44736">
        <ele>200.4</ele>
        <time>2018-02-03T09:31:11Z</time>
      </trkpt>
      <trkpt lat="43.2179" lon="5.44739">
        <ele>198.6</ele>
        <time>2018-02-03T09:31:16Z</time>
      </trkpt>
      <trkpt lat="43.21789" lon="5.44742">
        <ele>200.6</ele>
        <time>2018-02-03T09:31:21Z</time>
      </trkpt>
      <trkpt lat="43.21788" lon="5.44745">
        <ele>198.8</ele>
        <time>2018-02-03T09:31:26Z</time>
      </trkpt>
      <trkpt lat="43.21787" lon="5.44748">
        <ele>197</ele>
        <time>2018-02-03T09:31:31Z</time>
      </trkpt>
      <trkpt lat="43.21788" lon="5.44751">
        <ele>196.6</ele>
        <time>2018-02-03T09:31:36Z</time>
      </trkpt>
      <trkpt lat="43.21788" lon="5.44753">
        <ele>198.4</ele>
        <time>2018-02-03T09:31:41Z</time>
      </trkpt>
      <trkpt lat="43.21787" lon="5.44755">
        <ele>198.2</ele>
        <time>2018-02-03T09:31:46Z</time>
      </trkpt>
      <trkpt lat="43.21785" lon="5.44757">
        <ele>199.2</ele>
        <time>2018-02-03T09:31:51Z</time>
      </trkpt>
      <trkpt lat="43.21784" lon="5.44756">
        <ele>197.2</ele>
        <time>2018-02-03T09:31:57Z</time>
      </trkpt>
      <trkpt lat="43.21783" lon="5.44755">
        <ele>196.2</ele>
        <time>2018-02-03T09:32:02Z</time>
      </trkpt>
      <trkpt lat="43.21781" lon="5.44755">
        <ele>194.2</ele>
        <time>2018-02-03T09:32:07Z</time>
      </trkpt>
      <trkpt lat="43.21779" lon="5.44757">
        <ele>192.2</ele>
        <time>2018-02-03T09:32:12Z</time>
      </trkpt>
      <trkpt lat="43.21775" lon="5.44755">
        <ele>193.4</ele>
        <time>2018-02-03T09:32:17Z</time>
      </trkpt>
      <trkpt lat="43.21771" lon="5.44755">
        <ele>194</ele>
        <time>2018-02-03T09:32:22Z</time>
      </trkpt>
      <trkpt lat="43.21767" lon="5.44753">
        <ele>189.6</ele>
        <time>2018-02-03T09:32:27Z</time>
      </trkpt>
      <trkpt lat="43.21763" lon="5.44752">
        <ele>192</ele>
        <time>2018-02-03T09:32:32Z</time>
      </trkpt>
      <trkpt lat="43.21757" lon="5.44753">
        <ele>189.8</ele>
        <time>2018-02-03T09:32:37Z</time>
      </trkpt>
      <trkpt lat="43.21752" lon="5.44753">
        <ele>189.6</ele>
        <time>2018-02-03T09:32:42Z</time>
      </trkpt>
      <trkpt lat="43.21747" lon="5.44753">
        <ele>188</ele>
        <time>2018-02-03T09:32:47Z</time>
      </trkpt>
      <trkpt lat="43.21742" lon="5.44754">
        <ele>189.4</ele>
        <time>2018-02-03T09:32:52Z</time>
      </trkpt>
      <trkpt lat="43.21736" lon="5.44751">
        <ele>186.6</ele>
        <time>2018-02-03T09:32:57Z</time>
      </trkpt>
      <trkpt lat="43.21732" lon="5.44751">
        <ele>185.8</ele>
        <time>2018-02-03T09:33:02Z</time>
      </trkpt>
      <trkpt lat="43.21727" lon="5.44751">
        <ele>185.4</ele>
        <time>2018-02-03T09:33:07Z</time>
      </trkpt>
      <trkpt lat="43.21723" lon="5.44748">
        <ele>185.4</ele>
        <time>2018-02-03T09:33:12Z</time>
      </trkpt>
      <trkpt lat="43.21719" lon="5.44747">
        <ele>183.8</ele>
        <time>2018-02-03T09:33:17Z</time>
      </trkpt>
      <trkpt lat="43.21716" lon="5.4475">
        <ele>180.8</ele>
        <time>2018-02-03T09:33:22Z</time>
      </trkpt>
      <trkpt lat="43.21718" lon="5.44752">
        <ele>184.2</ele>
        <time>2018-02-03T09:33:27Z</time>
      </trkpt>
      <trkpt lat="43.21723" lon="5.44754">
        <ele>182</ele>
        <time>2018-02-03T09:33:32Z</time>
      </trkpt>
      <trkpt lat="43.21728" lon="5.44754">
        <ele>181.6</ele>
        <time>2018-02-03T09:33:37Z</time>
      </trkpt>
      <trkpt lat="43.21733" lon="5.44756">
        <ele>181.4</ele>
        <time>2018-02-03T09:33:42Z</time>
      </trkpt>
      <trkpt lat="43.21739" lon="5.44756">
        <ele>185</ele>
        <time>2018-02-03T09:33:47Z</time>
      </trkpt>
      <trkpt lat="43.21744" lon="5.44758">
        <ele>183.2</ele>
        <time>2018-02-03T09:33:52Z</time>
      </trkpt>
      <trkpt lat="43.21749" lon="5.44762">
        <ele>178.8</ele>
        <time>2018-02-03T09:33:57Z</time>
      </trkpt>
      <trkpt lat="43.21752" lon="5.44766">
        <ele>182.4</ele>
        <time>2018-02-03T09:34:02Z</time>
      </trkpt>
      <trkpt lat="43.21755" lon="5.4477">
        <ele>180</ele>
        <time>2018-02-03T09:34:07Z</time>
      </trkpt>
      <trkpt lat="43.21755" lon="5.44777">
        <ele>179.8</ele>
        <time>2018-02-03T09:34:12Z</time>
      </trkpt>
      <trkpt lat="43.21751" lon="5.44779">
        <ele>182.2</ele>
        <time>2018-02-03T09:34:17Z</time>
      </trkpt>
      <trkpt lat="43.21747" lon="5.44778">
        <ele>179.8</ele>
        <time>2018-02-03T09:34:22Z</time>
      </trkpt>
      <trkpt lat="43.21744" lon="5.44775">
        <ele>179.2</ele>
        <time>2018-02-03T09:34:27Z</time>
      </trkpt>
      <trkpt lat="43.21742" lon="5.44773">
        <ele>180</ele>
        <time>2018-02-03T09:34:32Z</time>
      </trkpt>
      <trkpt lat="43.21738" lon="5.44773">
        <ele>179.6</ele>
        <time>2018-02-03T09:34:37Z</time>
      </trkpt>
      <trkpt lat="43.21737" lon="5.44773">
        <ele>178.2</ele>
        <time>2018-02-03T09:34:42Z</time>
      </trkpt>
      <trkpt lat="43.21736" lon="5.44774">
        <ele>175.4</ele>
        <time>2018-02-03T09:34:47Z</time>
      </trkpt>
      <trkpt lat="43.21733" lon="5.44775">
        <ele>174.4</ele>
        <time>2018-02-03T09:34:52Z</time>
      </trkpt>
      <trkpt lat="43.21728" lon="5.44777">
        <ele>177.2</ele>
        <time>2018-02-03T09:34:57Z</time>
      </trkpt>
      <trkpt lat="43.21724" lon="5.44779">
        <ele>175.6</ele>
        <time>2018-02-03T09:35:02Z</time>
      </trkpt>
      <trkpt lat="43.21719" lon="5.44781">
        <ele>175.4</ele>
        <time>2018-02-03T09:35:07Z</time>
      </trkpt>
      <trkpt lat="43.21716" lon="5.44778">
        <ele>175.2</ele>
        <time>2018-02-03T09:35:12Z</time>
      </trkpt>
      <trkpt lat="43.21714" lon="5.44776">
        <ele>174.8</ele>
        <time>2018-02-03T09:35:17Z</time>
      </trkpt>
      <trkpt lat="43.21714" lon="5.44776">
        <ele>175</ele>
        <time>2018-02-03T09:35:27Z</time>
      </trkpt>
      <trkpt lat="43.21714" lon="5.44775">
        <ele>175</ele>
        <time>2018-02-03T09:35:32Z</time>
      </trkpt>
      <trkpt lat="43.21714" lon="5.44775">
        <ele>174</ele>
        <time>2018-02-03T09:35:37Z</time>
      </trkpt>
      <trkpt lat="43.2171" lon="5.44774">
        <ele>169.8</ele>
        <time>2018-02-03T09:35:42Z</time>
      </trkpt>
      <trkpt lat="43.21706" lon="5.44775">
        <ele>174.4</ele>
        <time>2018-02-03T09:35:47Z</time>
      </trkpt>
      <trkpt lat="43.21701" lon="5.44778">
        <ele>173.6</ele>
        <time>2018-02-03T09:35:52Z</time>
      </trkpt>
      <trkpt lat="43.21696" lon="5.4478">
        <ele>171.6</ele>
        <time>2018-02-03T09:35:57Z</time>
      </trkpt>
      <trkpt lat="43.21691" lon="5.44782">
        <ele>172.6</ele>
        <time>2018-02-03T09:36:02Z</time>
      </trkpt>
      <trkpt lat="43.21686" lon="5.44781">
        <ele>169.2</ele>
        <time>2018-02-03T09:36:07Z</time>
      </trkpt>
      <trkpt lat="43.21681" lon="5.44778">
        <ele>170</ele>
        <time>2018-02-03T09:36:12Z</time>
      </trkpt>
      <trkpt lat="43.21677" lon="5.44775">
        <ele>171.6</ele>
        <time>2018-02-03T09:36:17Z</time>
      </trkpt>
      <trkpt lat="43.21672" lon="5.44773">
        <ele>171</ele>
        <time>2018-02-03T09:36:22Z</time>
      </trkpt>
      <trkpt lat="43.21667" lon="5.44771">
        <ele>168</ele>
        <time>2018-02-03T09:36:27Z</time>
      </trkpt>
      <trkpt lat="43.21661" lon="5.44771">
        <ele>170.2</ele>
        <time>2018-02-03T09:36:32Z</time>
      </trkpt>
      <trkpt lat="43.21655" lon="5.44773">
        <ele>170.8</ele>
        <time>2018-02-03T09:36:37Z</time>
      </trkpt>
      <trkpt lat="43.21651" lon="5.44773">
        <ele>170.2</ele>
        <time>2018-02-03T09:36:42Z</time>
      </trkpt>
      <trkpt lat="43.21646" lon="5.44771">
        <ele>170</ele>
        <time>2018-02-03T09:36:47Z</time>
      </trkpt>
      <trkpt lat="43.21642" lon="5.44767">
        <ele>171.8</ele>
        <time>2018-02-03T09:36:52Z</time>
      </trkpt>
      <trkpt lat="43.21639" lon="5.44761">
        <ele>169.4</ele>
        <time>2018-02-03T09:36:57Z</time>
      </trkpt>
      <trkpt lat="43.21636" lon="5.44756">
        <ele>169.4</ele>
        <time>2018-02-03T09:37:02Z</time>
      </trkpt>
      <trkpt lat="43.21633" lon="5.44752">
        <ele>168.2</ele>
        <time>2018-02-03T09:37:07Z</time>
      </trkpt>
      <trkpt lat="43.21629" lon="5.44749">
        <ele>166.8</ele>
        <time>2018-02-03T09:37:12Z</time>
      </trkpt>
      <trkpt lat="43.21625" lon="5.44745">
        <ele>164.8</ele>
        <time>2018-02-03T09:37:17Z</time>
      </trkpt>
      <trkpt lat="43.21621" lon="5.44743">
        <ele>165</ele>
        <time>2018-02-03T09:37:22Z</time>
      </trkpt>
      <trkpt lat="43.21617" lon="5.4474">
        <ele>164</ele>
        <time>2018-02-03T09:37:27Z</time>
      </trkpt>
      <trkpt lat="43.21612" lon="5.44741">
        <ele>163.2</ele>
        <time>2018-02-03T09:37:32Z</time>
      </trkpt>
      <trkpt lat="43.21607" lon="5.44744">
        <ele>163.2</ele>
        <time>2018-02-03T09:37:37Z</time>
      </trkpt>
      <trkpt lat="43.21604" lon="5.44748">
        <ele>162.4</ele>
        <time>2018-02-03T09:37:42Z</time>
      </trkpt>
      <trkpt lat="43.216" lon="5.44753">
        <ele>158</ele>
        <time>2018-02-03T09:37:47Z</time>
      </trkpt>
      <trkpt lat="43.21596" lon="5.44758">
        <ele>157.4</ele>
        <time>2018-02-03T09:37:52Z</time>
      </trkpt>
      <trkpt lat="43.21592" lon="5.44762">
        <ele>160.6</ele>
        <time>2018-02-03T09:37:57Z</time>
      </trkpt>
      <trkpt lat="43.21588" lon="5.44768">
        <ele>157.2</ele>
        <time>2018-02-03T09:38:02Z</time>
      </trkpt>
      <trkpt lat="43.21585" lon="5.44773">
        <ele>157.6</ele>
        <time>2018-02-03T09:38:07Z</time>
      </trkpt>
      <trkpt lat="43.21581" lon="5.44779">
        <ele>155.2</ele>
        <time>2018-02-03T09:38:12Z</time>
      </trkpt>
      <trkpt lat="43.21577" lon="5.44784">
        <ele>156.8</ele>
        <time>2018-02-03T09:38:17Z</time>
      </trkpt>
      <trkpt lat="43.21574" lon="5.4479">
        <ele>156.2</ele>
        <time>2018-02-03T09:38:22Z</time>
      </trkpt>
      <trkpt lat="43.21571" lon="5.44796">
        <ele>155</ele>
        <time>2018-02-03T09:38:27Z</time>
      </trkpt>
      <trkpt lat="43.21569" lon="5.44802">
        <ele>152.6</ele>
        <time>2018-02-03T09:38:32Z</time>
      </trkpt>
      <trkpt lat="43.21569" lon="5.44808">
        <ele>151.8</ele>
        <time>2018-02-03T09:38:37Z</time>
      </trkpt>
      <trkpt lat="43.21569" lon="5.44815">
        <ele>153.8</ele>
        <time>2018-02-03T09:38:42Z</time>
      </trkpt>
      <trkpt lat="43.21572" lon="5.4482">
        <ele>151.2</ele>
        <time>2018-02-03T09:38:47Z</time>
      </trkpt>
      <trkpt lat="43.21575" lon="5.44825">
        <ele>155.2</ele>
        <time>2018-02-03T09:38:52Z</time>
      </trkpt>
      <trkpt lat="43.21579" lon="5.44829">
        <ele>155</ele>
        <time>2018-02-03T09:38:57Z</time>
      </trkpt>
      <trkpt lat="43.21582" lon="5.44835">
        <ele>155.8</ele>
        <time>2018-02-03T09:39:02Z</time>
      </trkpt>
      <trkpt lat="43.21582" lon="5.44842">
        <ele>154.2</ele>
        <time>2018-02-03T09:39:07Z</time>
      </trkpt>
      <trkpt lat="43.2158" lon="5.44848">
        <ele>155</ele>
        <time>2018-02-03T09:39:12Z</time>
      </trkpt>
      <trkpt lat="43.21576" lon="5.44852">
        <ele>153.6</ele>
        <time>2018-02-03T09:39:17Z</time>
      </trkpt>
      <trkpt lat="43.21572" lon="5.44857">
        <ele>154</ele>
        <time>2018-02-03T09:39:22Z</time>
      </trkpt>
      <trkpt lat="43.21568" lon="5.44861">
        <ele>154.6</ele>
        <time>2018-02-03T09:39:27Z</time>
      </trkpt>
      <trkpt lat="43.21563" lon="5.44866">
        <ele>154.4</ele>
        <time>2018-02-03T09:39:32Z</time>
      </trkpt>
      <trkpt lat="43.21559" lon="5.4487">
        <ele>155.4</ele>
        <time>2018-02-03T09:39:37Z</time>
      </trkpt>
      <trkpt lat="43.21556" lon="5.44875">
        <ele>150.6</ele>
        <time>2018-02-03T09:39:42Z</time>
      </trkpt>
      <trkpt lat="43.21553" lon="5.44881">
        <ele>150.4</ele>
        <time>2018-02-03T09:39:47Z</time>
      </trkpt>
      <trkpt lat="43.2155" lon="5.44886">
        <ele>149.8</ele>
        <time>2018-02-03T09:39:52Z</time>
      </trkpt>
      <trkpt lat="43.21546" lon="5.44891">
        <ele>146.4</ele>
        <time>2018-02-03T09:39:57Z</time>
      </trkpt>
      <trkpt lat="43.21543" lon="5.44897">
        <ele>143.8</ele>
        <time>2018-02-03T09:40:02Z</time>
      </trkpt>
      <trkpt lat="43.21539" lon="5.44902">
        <ele>145.4</ele>
        <time>2018-02-03T09:40:07Z</time>
      </trkpt>
      <trkpt lat="43.21535" lon="5.44906">
        <ele>142.6</ele>
        <time>2018-02-03T09:40:12Z</time>
      </trkpt>
      <trkpt lat="43.2153" lon="5.44907">
        <ele>146.6</ele>
        <time>2018-02-03T09:40:17Z</time>
      </trkpt>
      <trkpt lat="43.21526" lon="5.44909">
        <ele>143.6</ele>
        <time>2018-02-03T09:40:22Z</time>
      </trkpt>
      <trkpt lat="43.21522" lon="5.44913">
        <ele>143.8</ele>
        <time>2018-02-03T09:40:27Z</time>
      </trkpt>
      <trkpt lat="43.21519" lon="5.44918">
        <ele>143.6</ele>
        <time>2018-02-03T09:40:32Z</time>
      </trkpt>
      <trkpt lat="43.21518" lon="5.44924">
        <ele>143</ele>
        <time>2018-02-03T09:40:37Z</time>
      </trkpt>
      <trkpt lat="43.21516" lon="5.44931">
        <ele>141.6</ele>
        <time>2018-02-03T09:40:42Z</time>
      </trkpt>
      <trkpt lat="43.21514" lon="5.44937">
        <ele>143.6</ele>
        <time>2018-02-03T09:40:47Z</time>
      </trkpt>
      <trkpt lat="43.21509" lon="5.4494">
        <ele>141.2</ele>
        <time>2018-02-03T09:40:52Z</time>
      </trkpt>
      <trkpt lat="43.21504" lon="5.4494">
        <ele>141</ele>
        <time>2018-02-03T09:40:57Z</time>
      </trkpt>
      <trkpt lat="43.21499" lon="5.44936">
        <ele>139.6</ele>
        <time>2018-02-03T09:41:02Z</time>
      </trkpt>
      <trkpt lat="43.21494" lon="5.44931">
        <ele>137.4</ele>
        <time>2018-02-03T09:41:07Z</time>
      </trkpt>
      <trkpt lat="43.2149" lon="5.44928">
        <ele>139.4</ele>
        <time>2018-02-03T09:41:12Z</time>
      </trkpt>
      <trkpt lat="43.21484" lon="5.44926">
        <ele>136.6</ele>
        <time>2018-02-03T09:41:17Z</time>
      </trkpt>
      <trkpt lat="43.21479" lon="5.44926">
        <ele>137</ele>
        <time>2018-02-03T09:41:22Z</time>
      </trkpt>
      <trkpt lat="43.21474" lon="5.44928">
        <ele>134.2</ele>
        <time>2018-02-03T09:41:27Z</time>
      </trkpt>
      <trkpt lat="43.2147" lon="5.44932">
        <ele>135</ele>
        <time>2018-02-03T09:41:32Z</time>
      </trkpt>
      <trkpt lat="43.21466" lon="5.44936">
        <ele>134.2</ele>
        <time>2018-02-03T09:41:37Z</time>
      </trkpt>
      <trkpt lat="43.21464" lon="5.44941">
        <ele>133.4</ele>
        <time>2018-02-03T09:41:42Z</time>
      </trkpt>
      <trkpt lat="43.2146" lon="5.44947">
        <ele>134</ele>
        <time>2018-02-03T09:41:47Z</time>
      </trkpt>
      <trkpt lat="43.21456" lon="5.4495">
        <ele>134.4</ele>
        <time>2018-02-03T09:41:52Z</time>
      </trkpt>
      <trkpt lat="43.21452" lon="5.44953">
        <ele>134.4</ele>
        <time>2018-02-03T09:41:57Z</time>
      </trkpt>
      <trkpt lat="43.21447" lon="5.44955">
        <ele>132.4</ele>
        <time>2018-02-03T09:42:02Z</time>
      </trkpt>
      <trkpt lat="43.21443" lon="5.44958">
        <ele>131.6</ele>
        <time>2018-02-03T09:42:07Z</time>
      </trkpt>
      <trkpt lat="43.21438" lon="5.44961">
        <ele>132</ele>
        <time>2018-02-03T09:42:12Z</time>
      </trkpt>
      <trkpt lat="43.21434" lon="5.44965">
        <ele>132.6</ele>
        <time>2018-02-03T09:42:17Z</time>
      </trkpt>
      <trkpt lat="43.21428" lon="5.44968">
        <ele>129</ele>
        <time>2018-02-03T09:42:22Z</time>
      </trkpt>
      <trkpt lat="43.21423" lon="5.44967">
        <ele>131.6</ele>
        <time>2018-02-03T09:42:27Z</time>
      </trkpt>
      <trkpt lat="43.21418" lon="5.44964">
        <ele>131.2</ele>
        <time>2018-02-03T09:42:32Z</time>
      </trkpt>
      <trkpt lat="43.21413" lon="5.44961">
        <ele>130</ele>
        <time>2018-02-03T09:42:37Z</time>
      </trkpt>
      <trkpt lat="43.21408" lon="5.4496">
        <ele>132.6</ele>
        <time>2018-02-03T09:42:42Z</time>
      </trkpt>
      <trkpt lat="43.21402" lon="5.44959">
        <ele>130.2</ele>
        <time>2018-02-03T09:42:47Z</time>
      </trkpt>
      <trkpt lat="43.21397" lon="5.44962">
        <ele>129.6</ele>
        <time>2018-02-03T09:42:52Z</time>
      </trkpt>
      <trkpt lat="43.21392" lon="5.44966">
        <ele>132.8</ele>
        <time>2018-02-03T09:42:57Z</time>
      </trkpt>
      <trkpt lat="43.21391" lon="5.44969">
        <ele>131.4</ele>
        <time>2018-02-03T09:43:02Z</time>
      </trkpt>
      <trkpt lat="43.2139" lon="5.44976">
        <ele>128.8</ele>
        <time>2018-02-03T09:43:07Z</time>
      </trkpt>
      <trkpt lat="43.21392" lon="5.44982">
        <ele>131.2</ele>
        <time>2018-02-03T09:43:12Z</time>
      </trkpt>
      <trkpt lat="43.21394" lon="5.44988">
        <ele>128.2</ele>
        <time>2018-02-03T09:43:17Z</time>
      </trkpt>
      <trkpt lat="43.21395" lon="5.44994">
        <ele>130</ele>
        <time>2018-02-03T09:43:22Z</time>
      </trkpt>
      <trkpt lat="43.21396" lon="5.45001">
        <ele>125</ele>
        <time>2018-02-03T09:43:27Z</time>
      </trkpt>
      <trkpt lat="43.21396" lon="5.45008">
        <ele>124.4</ele>
        <time>2018-02-03T09:43:32Z</time>
      </trkpt>
      <trkpt lat="43.21396" lon="5.45015">
        <ele>125</ele>
        <time>2018-02-03T09:43:37Z</time>
      </trkpt>
      <trkpt lat="43.21394" lon="5.45021">
        <ele>125.8</ele>
        <time>2018-02-03T09:43:42Z</time>
      </trkpt>
      <trkpt lat="43.21394" lon="5.45028">
        <ele>123.6</ele>
        <time>2018-02-03T09:43:47Z</time>
      </trkpt>
      <trkpt lat="43.21392" lon="5.45034">
        <ele>120.8</ele>
        <time>2018-02-03T09:43:52Z</time>
      </trkpt>
      <trkpt lat="43.2139" lon="5.45037">
        <ele>119.4</ele>
        <time>2018-02-03T09:43:57Z</time>
      </trkpt>
      <trkpt lat="43.21388" lon="5.45038">
        <ele>120.4</ele>
        <time>2018-02-03T09:44:17Z</time>
      </trkpt>
      <trkpt lat="43.21387" lon="5.45038">
        <ele>120.4</ele>
        <time>2018-02-03T09:44:42Z</time>
      </trkpt>
      <trkpt lat="43.21387" lon="5.45037">
        <ele>121.2</ele>
        <time>2018-02-03T09:45:12Z</time>
      </trkpt>
      <trkpt lat="43.21386" lon="5.45042">
        <ele>119</ele>
        <time>2018-02-03T09:45:22Z</time>
      </trkpt>
      <trkpt lat="43.21384" lon="5.45046">
        <ele>119.2</ele>
        <time>2018-02-03T09:45:27Z</time>
      </trkpt>
      <trkpt lat="43.21382" lon="5.4505">
        <ele>120.6</ele>
        <time>2018-02-03T09:45:32Z</time>
      </trkpt>
      <trkpt lat="43.2138" lon="5.45055">
        <ele>118.8</ele>
        <time>2018-02-03T09:45:37Z</time>
      </trkpt>
      <trkpt lat="43.21377" lon="5.45061">
        <ele>119.6</ele>
        <time>2018-02-03T09:45:42Z</time>
      </trkpt>
      <trkpt lat="43.21374" lon="5.45065">
        <ele>119.8</ele>
        <time>2018-02-03T09:45:47Z</time>
      </trkpt>
      <trkpt lat="43.2137" lon="5.4507">
        <ele>116.8</ele>
        <time>2018-02-03T09:45:52Z</time>
      </trkpt>
      <trkpt lat="43.21367" lon="5.45076">
        <ele>114.4</ele>
        <time>2018-02-03T09:45:57Z</time>
      </trkpt>
      <trkpt lat="43.21362" lon="5.45081">
        <ele>115.2</ele>
        <time>2018-02-03T09:46:02Z</time>
      </trkpt>
      <trkpt lat="43.21358" lon="5.45083">
        <ele>111.2</ele>
        <time>2018-02-03T09:46:07Z</time>
      </trkpt>
      <trkpt lat="43.21353" lon="5.45086">
        <ele>111.4</ele>
        <time>2018-02-03T09:46:12Z</time>
      </trkpt>
      <trkpt lat="43.21347" lon="5.45085">
        <ele>112</ele>
        <time>2018-02-03T09:46:17Z</time>
      </trkpt>
      <trkpt lat="43.21342" lon="5.45083">
        <ele>111.4</ele>
        <time>2018-02-03T09:46:22Z</time>
      </trkpt>
      <trkpt lat="43.21338" lon="5.45083">
        <ele>112.2</ele>
        <time>2018-02-03T09:46:27Z</time>
      </trkpt>
      <trkpt lat="43.21333" lon="5.45084">
        <ele>109.8</ele>
        <time>2018-02-03T09:46:32Z</time>
      </trkpt>
      <trkpt lat="43.2133" lon="5.45087">
        <ele>112.2</ele>
        <time>2018-02-03T09:46:37Z</time>
      </trkpt>
      <trkpt lat="43.21327" lon="5.45092">
        <ele>110.4</ele>
        <time>2018-02-03T09:46:42Z</time>
      </trkpt>
      <trkpt lat="43.21325" lon="5.45097">
        <ele>110.2</ele>
        <time>2018-02-03T09:46:47Z</time>
      </trkpt>
      <trkpt lat="43.21322" lon="5.45101">
        <ele>109.6</ele>
        <time>2018-02-03T09:46:52Z</time>
      </trkpt>
      <trkpt lat="43.21319" lon="5.45104">
        <ele>108.4</ele>
        <time>2018-02-03T09:46:57Z</time>
      </trkpt>
      <trkpt lat="43.21318" lon="5.45106">
        <ele>107.8</ele>
        <time>2018-02-03T09:47:02Z</time>
      </trkpt>
      <trkpt lat="43.21318" lon="5.45107">
        <ele>105.6</ele>
        <time>2018-02-03T09:47:22Z</time>
      </trkpt>
      <trkpt lat="43.21318" lon="5.45107">
        <ele>106.4</ele>
        <time>2018-02-03T09:47:27Z</time>
      </trkpt>
      <trkpt lat="43.21321" lon="5.45108">
        <ele>107.4</ele>
        <time>2018-02-03T09:47:32Z</time>
      </trkpt>
      <trkpt lat="43.21323" lon="5.4511">
        <ele>107.4</ele>
        <time>2018-02-03T09:47:37Z</time>
      </trkpt>
      <trkpt lat="43.21323" lon="5.45112">
        <ele>105</ele>
        <time>2018-02-03T09:47:42Z</time>
      </trkpt>
      <trkpt lat="43.21324" lon="5.45115">
        <ele>105.6</ele>
        <time>2018-02-03T09:47:47Z</time>
      </trkpt>
      <trkpt lat="43.21324" lon="5.45121">
        <ele>106.4</ele>
        <time>2018-02-03T09:47:52Z</time>
      </trkpt>
      <trkpt lat="43.21325" lon="5.45127">
        <ele>103.2</ele>
        <time>2018-02-03T09:47:57Z</time>
      </trkpt>
      <trkpt lat="43.21326" lon="5.45133">
        <ele>106</ele>
        <time>2018-02-03T09:48:02Z</time>
      </trkpt>
      <trkpt lat="43.21327" lon="5.45139">
        <ele>101.6</ele>
        <time>2018-02-03T09:48:07Z</time>
      </trkpt>
      <trkpt lat="43.21327" lon="5.45143">
        <ele>104.2</ele>
        <time>2018-02-03T09:48:12Z</time>
      </trkpt>
      <trkpt lat="43.21327" lon="5.45149">
        <ele>102.4</ele>
        <time>2018-02-03T09:48:17Z</time>
      </trkpt>
      <trkpt lat="43.21326" lon="5.45153">
        <ele>103</ele>
        <time>2018-02-03T09:48:22Z</time>
      </trkpt>
      <trkpt lat="43.21325" lon="5.45158">
        <ele>103.8</ele>
        <time>2018-02-03T09:48:27Z</time>
      </trkpt>
      <trkpt lat="43.21323" lon="5.45164">
        <ele>103.8</ele>
        <time>2018-02-03T09:48:32Z</time>
      </trkpt>
      <trkpt lat="43.21321" lon="5.45171">
        <ele>106</ele>
        <time>2018-02-03T09:48:37Z</time>
      </trkpt>
      <trkpt lat="43.2132" lon="5.45175">
        <ele>107.8</ele>
        <time>2018-02-03T09:48:42Z</time>
      </trkpt>
      <trkpt lat="43.21323" lon="5.45183">
        <ele>107</ele>
        <time>2018-02-03T09:48:47Z</time>
      </trkpt>
      <trkpt lat="43.21324" lon="5.4519">
        <ele>106.2</ele>
        <time>2018-02-03T09:48:52Z</time>
      </trkpt>
      <trkpt lat="43.21326" lon="5.45198">
        <ele>107.2</ele>
        <time>2018-02-03T09:48:58Z</time>
      </trkpt>
      <trkpt lat="43.21328" lon="5.45203">
        <ele>108.4</ele>
        <time>2018-02-03T09:49:03Z</time>
      </trkpt>
      <trkpt lat="43.21327" lon="5.45206">
        <ele>105.6</ele>
        <time>2018-02-03T09:49:08Z</time>
      </trkpt>
      <trkpt lat="43.21327" lon="5.45206">
        <ele>105.4</ele>
        <time>2018-02-03T09:49:14Z</time>
      </trkpt>
      <trkpt lat="43.21329" lon="5.45209">
        <ele>104.6</ele>
        <time>2018-02-03T09:49:19Z</time>
      </trkpt>
      <trkpt lat="43.21329" lon="5.45214">
        <ele>105</ele>
        <time>2018-02-03T09:49:24Z</time>
      </trkpt>
      <trkpt lat="43.21328" lon="5.4522">
        <ele>102.8</ele>
        <time>2018-02-03T09:49:29Z</time>
      </trkpt>
      <trkpt lat="43.21328" lon="5.45227">
        <ele>103.2</ele>
        <time>2018-02-03T09:49:34Z</time>
      </trkpt>
      <trkpt lat="43.21329" lon="5.45232">
        <ele>102.4</ele>
        <time>2018-02-03T09:49:39Z</time>
      </trkpt>
      <trkpt lat="43.21332" lon="5.45236">
        <ele>99.8</ele>
        <time>2018-02-03T09:49:44Z</time>
      </trkpt>
      <trkpt lat="43.21334" lon="5.45239">
        <ele>101.2</ele>
        <time>2018-02-03T09:49:49Z</time>
      </trkpt>
      <trkpt lat="43.21334" lon="5.4524">
        <ele>100.2</ele>
        <time>2018-02-03T09:49:54Z</time>
      </trkpt>
      <trkpt lat="43.21336" lon="5.45242">
        <ele>98.2</ele>
        <time>2018-02-03T09:49:59Z</time>
      </trkpt>
      <trkpt lat="43.21339" lon="5.45248">
        <ele>93.4</ele>
        <time>2018-02-03T09:50:04Z</time>
      </trkpt>
      <trkpt lat="43.2134" lon="5.45255">
        <ele>100.6</ele>
        <time>2018-02-03T09:50:09Z</time>
      </trkpt>
      <trkpt lat="43.21342" lon="5.4526">
        <ele>96</ele>
        <time>2018-02-03T09:50:14Z</time>
      </trkpt>
      <trkpt lat="43.21344" lon="5.45266">
        <ele>96</ele>
        <time>2018-02-03T09:50:19Z</time>
      </trkpt>
      <trkpt lat="43.21346" lon="5.45274">
        <ele>94.2</ele>
        <time>2018-02-03T09:50:24Z</time>
      </trkpt>
      <trkpt lat="43.21345" lon="5.4528">
        <ele>94.2</ele>
        <time>2018-02-03T09:50:29Z</time>
      </trkpt>
      <trkpt lat="43.21346" lon="5.45287">
        <ele>90.8</ele>
        <time>2018-02-03T09:50:34Z</time>
      </trkpt>
      <trkpt lat="43.21346" lon="5.45288">
        <ele>91</ele>
        <time>2018-02-03T09:50:39Z</time>
      </trkpt>
      <trkpt lat="43.21346" lon="5.45288">
        <ele>91</ele>
        <time>2018-02-03T09:50:44Z</time>
      </trkpt>
      <trkpt lat="43.21345" lon="5.45293">
        <ele>89</ele>
        <time>2018-02-03T09:50:49Z</time>
      </trkpt>
      <trkpt lat="43.21345" lon="5.453">
        <ele>88.4</ele>
        <time>2018-02-03T09:50:54Z</time>
      </trkpt>
      <trkpt lat="43.21344" lon="5.45307">
        <ele>87.8</ele>
        <time>2018-02-03T09:50:59Z</time>
      </trkpt>
      <trkpt lat="43.21342" lon="5.45313">
        <ele>91.8</ele>
        <time>2018-02-03T09:51:04Z</time>
      </trkpt>
      <trkpt lat="43.21341" lon="5.4532">
        <ele>89.8</ele>
        <time>2018-02-03T09:51:09Z</time>
      </trkpt>
      <trkpt lat="43.2134" lon="5.45326">
        <ele>88.8</ele>
        <time>2018-02-03T09:51:14Z</time>
      </trkpt>
      <trkpt lat="43.21338" lon="5.45332">
        <ele>87.8</ele>
        <time>2018-02-03T09:51:19Z</time>
      </trkpt>
      <trkpt lat="43.21336" lon="5.45338">
        <ele>90.4</ele>
        <time>2018-02-03T09:51:24Z</time>
      </trkpt>
      <trkpt lat="43.21336" lon="5.45345">
        <ele>87.4</ele>
        <time>2018-02-03T09:51:29Z</time>
      </trkpt>
      <trkpt lat="43.21335" lon="5.45352">
        <ele>88.4</ele>
        <time>2018-02-03T09:51:34Z</time>
      </trkpt>
      <trkpt lat="43.21333" lon="5.45358">
        <ele>92.2</ele>
        <time>2018-02-03T09:51:39Z</time>
      </trkpt>
      <trkpt lat="43.21332" lon="5.45364">
        <ele>87</ele>
        <time>2018-02-03T09:51:44Z</time>
      </trkpt>
      <trkpt lat="43.21331" lon="5.45371">
        <ele>90.2</ele>
        <time>2018-02-03T09:51:49Z</time>
      </trkpt>
      <trkpt lat="43.21329" lon="5.45377">
        <ele>86.6</ele>
        <time>2018-02-03T09:51:54Z</time>
      </trkpt>
      <trkpt lat="43.21328" lon="5.45383">
        <ele>85.4</ele>
        <time>2018-02-03T09:51:59Z</time>
      </trkpt>
      <trkpt lat="43.21327" lon="5.45389">
        <ele>84</ele>
        <time>2018-02-03T09:52:04Z</time>
      </trkpt>
      <trkpt lat="43.21326" lon="5.45395">
        <ele>86</ele>
        <time>2018-02-03T09:52:09Z</time>
      </trkpt>
      <trkpt lat="43.21325" lon="5.45402">
        <ele>84</ele>
        <time>2018-02-03T09:52:14Z</time>
      </trkpt>
      <trkpt lat="43.21325" lon="5.45409">
        <ele>83.2</ele>
        <time>2018-02-03T09:52:19Z</time>
      </trkpt>
      <trkpt lat="43.21323" lon="5.45416">
        <ele>83</ele>
        <time>2018-02-03T09:52:24Z</time>
      </trkpt>
      <trkpt lat="43.21322" lon="5.45422">
        <ele>82.8</ele>
        <time>2018-02-03T09:52:29Z</time>
      </trkpt>
      <trkpt lat="43.21321" lon="5.45429">
        <ele>81.8</ele>
        <time>2018-02-03T09:52:34Z</time>
      </trkpt>
      <trkpt lat="43.2132" lon="5.45435">
        <ele>81.8</ele>
        <time>2018-02-03T09:52:39Z</time>
      </trkpt>
      <trkpt lat="43.21319" lon="5.45442">
        <ele>83.4</ele>
        <time>2018-02-03T09:52:44Z</time>
      </trkpt>
      <trkpt lat="43.21318" lon="5.45448">
        <ele>82.2</ele>
        <time>2018-02-03T09:52:49Z</time>
      </trkpt>
      <trkpt lat="43.21317" lon="5.45455">
        <ele>78.4</ele>
        <time>2018-02-03T09:52:54Z</time>
      </trkpt>
      <trkpt lat="43.21316" lon="5.45461">
        <ele>81.4</ele>
        <time>2018-02-03T09:52:59Z</time>
      </trkpt>
      <trkpt lat="43.21316" lon="5.45469">
        <ele>80.8</ele>
        <time>2018-02-03T09:53:04Z</time>
      </trkpt>
      <trkpt lat="43.21315" lon="5.45476">
        <ele>80.8</ele>
        <time>2018-02-03T09:53:09Z</time>
      </trkpt>
      <trkpt lat="43.21313" lon="5.45482">
        <ele>77.8</ele>
        <time>2018-02-03T09:53:14Z</time>
      </trkpt>
      <trkpt lat="43.21313" lon="5.45488">
        <ele>77.2</ele>
        <time>2018-02-03T09:53:19Z</time>
      </trkpt>
      <trkpt lat="43.21313" lon="5.45495">
        <ele>81</ele>
        <time>2018-02-03T09:53:24Z</time>
      </trkpt>
      <trkpt lat="43.21313" lon="5.45502">
        <ele>79.4</ele>
        <time>2018-02-03T09:53:29Z</time>
      </trkpt>
      <trkpt lat="43.21312" lon="5.45508">
        <ele>80.6</ele>
        <time>2018-02-03T09:53:34Z</time>
      </trkpt>
      <trkpt lat="43.2131" lon="5.45515">
        <ele>81.6</ele>
        <time>2018-02-03T09:53:39Z</time>
      </trkpt>
      <trkpt lat="43.21308" lon="5.45519">
        <ele>81.2</ele>
        <time>2018-02-03T09:53:44Z</time>
      </trkpt>
      <trkpt lat="43.21307" lon="5.45522">
        <ele>84.4</ele>
        <time>2018-02-03T09:53:59Z</time>
      </trkpt>
      <trkpt lat="43.21306" lon="5.45525">
        <ele>84.8</ele>
        <time>2018-02-03T09:54:04Z</time>
      </trkpt>
      <trkpt lat="43.21303" lon="5.45531">
        <ele>83</ele>
        <time>2018-02-03T09:54:09Z</time>
      </trkpt>
      <trkpt lat="43.21302" lon="5.45536">
        <ele>82.2</ele>
        <time>2018-02-03T09:54:14Z</time>
      </trkpt>
      <trkpt lat="43.21301" lon="5.45544">
        <ele>84.6</ele>
        <time>2018-02-03T09:54:19Z</time>
      </trkpt>
      <trkpt lat="43.21299" lon="5.45551">
        <ele>83.8</ele>
        <time>2018-02-03T09:54:24Z</time>
      </trkpt>
      <trkpt lat="43.21298" lon="5.45557">
        <ele>82.8</ele>
        <time>2018-02-03T09:54:29Z</time>
      </trkpt>
      <trkpt lat="43.21297" lon="5.45563">
        <ele>82.2</ele>
        <time>2018-02-03T09:54:34Z</time>
      </trkpt>
      <trkpt lat="43.21296" lon="5.45569">
        <ele>77.6</ele>
        <time>2018-02-03T09:54:39Z</time>
      </trkpt>
      <trkpt lat="43.21294" lon="5.45575">
        <ele>77.4</ele>
        <time>2018-02-03T09:54:44Z</time>
      </trkpt>
      <trkpt lat="43.21294" lon="5.45582">
        <ele>78.2</ele>
        <time>2018-02-03T09:54:49Z</time>
      </trkpt>
      <trkpt lat="43.21292" lon="5.45588">
        <ele>76.8</ele>
        <time>2018-02-03T09:54:54Z</time>
      </trkpt>
      <trkpt lat="43.21291" lon="5.45593">
        <ele>76.2</ele>
        <time>2018-02-03T09:54:59Z</time>
      </trkpt>
      <trkpt lat="43.2129" lon="5.45599">
        <ele>75.4</ele>
        <time>2018-02-03T09:55:04Z</time>
      </trkpt>
      <trkpt lat="43.21288" lon="5.45605">
        <ele>76</ele>
        <time>2018-02-03T09:55:09Z</time>
      </trkpt>
      <trkpt lat="43.21285" lon="5.4561">
        <ele>76.6</ele>
        <time>2018-02-03T09:55:14Z</time>
      </trkpt>
      <trkpt lat="43.21282" lon="5.45616">
        <ele>79.8</ele>
        <time>2018-02-03T09:55:19Z</time>
      </trkpt>
      <trkpt lat="43.2128" lon="5.45622">
        <ele>78.6</ele>
        <time>2018-02-03T09:55:24Z</time>
      </trkpt>
      <trkpt lat="43.21279" lon="5.45629">
        <ele>77.4</ele>
        <time>2018-02-03T09:55:29Z</time>
      </trkpt>
      <trkpt lat="43.21277" lon="5.45634">
        <ele>77.2</ele>
        <time>2018-02-03T09:55:34Z</time>
      </trkpt>
      <trkpt lat="43.21275" lon="5.45638">
        <ele>76.6</ele>
        <time>2018-02-03T09:55:39Z</time>
      </trkpt>
      <trkpt lat="43.21272" lon="5.45641">
        <ele>77.4</ele>
        <time>2018-02-03T09:55:44Z</time>
      </trkpt>
      <trkpt lat="43.21271" lon="5.45642">
        <ele>73</ele>
        <time>2018-02-03T09:55:49Z</time>
      </trkpt>
      <trkpt lat="43.21271" lon="5.45643">
        <ele>71.4</ele>
        <time>2018-02-03T09:56:19Z</time>
      </trkpt>
      <trkpt lat="43.21271" lon="5.45645">
        <ele>70.8</ele>
        <time>2018-02-03T09:56:24Z</time>
      </trkpt>
      <trkpt lat="43.21273" lon="5.45648">
        <ele>68.4</ele>
        <time>2018-02-03T09:56:29Z</time>
      </trkpt>
      <trkpt lat="43.21275" lon="5.45653">
        <ele>69.2</ele>
        <time>2018-02-03T09:56:34Z</time>
      </trkpt>
      <trkpt lat="43.21275" lon="5.45655">
        <ele>67.8</ele>
        <time>2018-02-03T09:56:39Z</time>
      </trkpt>
      <trkpt lat="43.21275" lon="5.45655">
        <ele>65.8</ele>
        <time>2018-02-03T09:56:49Z</time>
      </trkpt>
      <trkpt lat="43.21274" lon="5.45657">
        <ele>66.2</ele>
        <time>2018-02-03T09:56:54Z</time>
      </trkpt>
      <trkpt lat="43.21271" lon="5.4566">
        <ele>67.8</ele>
        <time>2018-02-03T09:56:59Z</time>
      </trkpt>
      <trkpt lat="43.21268" lon="5.45661">
        <ele>66.2</ele>
        <time>2018-02-03T09:57:04Z</time>
      </trkpt>
      <trkpt lat="43.21265" lon="5.45664">
        <ele>70.6</ele>
        <time>2018-02-03T09:57:09Z</time>
      </trkpt>
      <trkpt lat="43.21261" lon="5.45661">
        <ele>70.8</ele>
        <time>2018-02-03T09:57:14Z</time>
      </trkpt>
      <trkpt lat="43.21258" lon="5.45658">
        <ele>72.2</ele>
        <time>2018-02-03T09:57:19Z</time>
      </trkpt>
      <trkpt lat="43.21255" lon="5.45654">
        <ele>70.2</ele>
        <time>2018-02-03T09:57:24Z</time>
      </trkpt>
      <trkpt lat="43.21251" lon="5.45644">
        <ele>66.8</ele>
        <time>2018-02-03T09:57:29Z</time>
      </trkpt>
      <trkpt lat="43.21248" lon="5.45636">
        <ele>64.4</ele>
        <time>2018-02-03T09:57:34Z</time>
      </trkpt>
      <trkpt lat="43.21246" lon="5.45623">
        <ele>63.2</ele>
        <time>2018-02-03T09:57:39Z</time>
      </trkpt>
      <trkpt lat="43.21248" lon="5.45614">
        <ele>60.8</ele>
        <time>2018-02-03T09:57:44Z</time>
      </trkpt>
      <trkpt lat="43.21248" lon="5.45608">
        <ele>59.6</ele>
        <time>2018-02-03T09:57:49Z</time>
      </trkpt>
      <trkpt lat="43.21249" lon="5.45601">
        <ele>57.4</ele>
        <time>2018-02-03T09:57:54Z</time>
      </trkpt>
      <trkpt lat="43.21249" lon="5.45595">
        <ele>59.8</ele>
        <time>2018-02-03T09:57:59Z</time>
      </trkpt>
      <trkpt lat="43.21249" lon="5.45588">
        <ele>58.2</ele>
        <time>2018-02-03T09:58:04Z</time>
      </trkpt>
      <trkpt lat="43.21248" lon="5.45583">
        <ele>57.4</ele>
        <time>2018-02-03T09:58:09Z</time>
      </trkpt>
      <trkpt lat="43.21248" lon="5.45577">
        <ele>58.4</ele>
        <time>2018-02-03T09:58:14Z</time>
      </trkpt>
      <trkpt lat="43.21247" lon="5.45574">
        <ele>56.4</ele>
        <time>2018-02-03T09:58:19Z</time>
      </trkpt>
      <trkpt lat="43.21248" lon="5.45566">
        <ele>61.2</ele>
        <time>2018-02-03T09:58:24Z</time>
      </trkpt>
      <trkpt lat="43.21248" lon="5.45557">
        <ele>63.6</ele>
        <time>2018-02-03T09:58:29Z</time>
      </trkpt>
      <trkpt lat="43.21242" lon="5.4556">
        <ele>67</ele>
        <time>2018-02-03T09:58:34Z</time>
      </trkpt>
      <trkpt lat="43.21238" lon="5.45566">
        <ele>63.4</ele>
        <time>2018-02-03T09:58:39Z</time>
      </trkpt>
      <trkpt lat="43.21234" lon="5.45573">
        <ele>62.4</ele>
        <time>2018-02-03T09:58:44Z</time>
      </trkpt>
      <trkpt lat="43.21227" lon="5.45582">
        <ele>55.4</ele>
        <time>2018-02-03T09:58:54Z</time>
      </trkpt>
      <trkpt lat="43.21226" lon="5.45577">
        <ele>49</ele>
        <time>2018-02-03T09:58:59Z</time>
      </trkpt>
      <trkpt lat="43.21226" lon="5.45566">
        <ele>43.8</ele>
        <time>2018-02-03T09:59:04Z</time>
      </trkpt>
      <trkpt lat="43.21226" lon="5.4556">
        <ele>41.4</ele>
        <time>2018-02-03T09:59:09Z</time>
      </trkpt>
      <trkpt lat="43.2123" lon="5.45549">
        <ele>42</ele>
        <time>2018-02-03T09:59:14Z</time>
      </trkpt>
      <trkpt lat="43.21227" lon="5.45556">
        <ele>42.2</ele>
        <time>2018-02-03T09:59:19Z</time>
      </trkpt>
      <trkpt lat="43.21225" lon="5.45564">
        <ele>41.2</ele>
        <time>2018-02-03T09:59:24Z</time>
      </trkpt>
      <trkpt lat="43.21225" lon="5.45576">
        <ele>42.6</ele>
        <time>2018-02-03T09:59:29Z</time>
      </trkpt>
      <trkpt lat="43.21222" lon="5.45582">
        <ele>45.4</ele>
        <time>2018-02-03T09:59:34Z</time>
      </trkpt>
      <trkpt lat="43.21221" lon="5.45592">
        <ele>45</ele>
        <time>2018-02-03T09:59:39Z</time>
      </trkpt>
      <trkpt lat="43.2122" lon="5.45596">
        <ele>45.6</ele>
        <time>2018-02-03T09:59:44Z</time>
      </trkpt>
      <trkpt lat="43.2122" lon="5.45597">
        <ele>47.6</ele>
        <time>2018-02-03T09:59:54Z</time>
      </trkpt>
      <trkpt lat="43.21219" lon="5.45601">
        <ele>48.2</ele>
        <time>2018-02-03T09:59:59Z</time>
      </trkpt>
      <trkpt lat="43.21218" lon="5.45603">
        <ele>48.4</ele>
        <time>2018-02-03T10:00:04Z</time>
      </trkpt>
      <trkpt lat="43.21218" lon="5.456">
        <ele>48.2</ele>
        <time>2018-02-03T10:00:09Z</time>
      </trkpt>
      <trkpt lat="43.21216" lon="5.45596">
        <ele>47.4</ele>
        <time>2018-02-03T10:00:14Z</time>
      </trkpt>
      <trkpt lat="43.21215" lon="5.45597">
        <ele>45.8</ele>
        <time>2018-02-03T10:00:19Z</time>
      </trkpt>
      <trkpt lat="43.21213" lon="5.45599">
        <ele>44.2</ele>
        <time>2018-02-03T10:00:24Z</time>
      </trkpt>
      <trkpt lat="43.21211" lon="5.45602">
        <ele>40.8</ele>
        <time>2018-02-03T10:00:34Z</time>
      </trkpt>
      <trkpt lat="43.2121" lon="5.45602">
        <ele>39.4</ele>
        <time>2018-02-03T10:00:39Z</time>
      </trkpt>
      <trkpt lat="43.21208" lon="5.45605">
        <ele>36.2</ele>
        <time>2018-02-03T10:00:44Z</time>
      </trkpt>
      <trkpt lat="43.21206" lon="5.45601">
        <ele>33.2</ele>
        <time>2018-02-03T10:00:49Z</time>
      </trkpt>
      <trkpt lat="43.21204" lon="5.456">
        <ele>34</ele>
        <time>2018-02-03T10:00:54Z</time>
      </trkpt>
      <trkpt lat="43.21202" lon="5.45598">
        <ele>34.2</ele>
        <time>2018-02-03T10:00:59Z</time>
      </trkpt>
      <trkpt lat="43.21202" lon="5.45602">
        <ele>32.6</ele>
        <time>2018-02-03T10:01:04Z</time>
      </trkpt>
      <trkpt lat="43.21204" lon="5.45628">
        <ele>33.8</ele>
        <time>2018-02-03T10:01:09Z</time>
      </trkpt>
      <trkpt lat="43.21203" lon="5.45641">
        <ele>29.4</ele>
        <time>2018-02-03T10:01:14Z</time>
      </trkpt>
      <trkpt lat="43.21198" lon="5.45643">
        <ele>34</ele>
        <time>2018-02-03T10:01:19Z</time>
      </trkpt>
      <trkpt lat="43.21192" lon="5.45641">
        <ele>36.2</ele>
        <time>2018-02-03T10:01:24Z</time>
      </trkpt>
      <trkpt lat="43.21189" lon="5.45639">
        <ele>35.6</ele>
        <time>2018-02-03T10:01:29Z</time>
      </trkpt>
      <trkpt lat="43.21187" lon="5.45641">
        <ele>38.8</ele>
        <time>2018-02-03T10:01:34Z</time>
      </trkpt>
      <trkpt lat="43.21185" lon="5.45645">
        <ele>41.2</ele>
        <time>2018-02-03T10:01:39Z</time>
      </trkpt>
      <trkpt lat="43.21185" lon="5.45649">
        <ele>40.8</ele>
        <time>2018-02-03T10:01:44Z</time>
      </trkpt>
      <trkpt lat="43.21185" lon="5.45649">
        <ele>39.4</ele>
        <time>2018-02-03T10:01:49Z</time>
      </trkpt>
      <trkpt lat="43.21183" lon="5.45654">
        <ele>36.8</ele>
        <time>2018-02-03T10:01:54Z</time>
      </trkpt>
      <trkpt lat="43.2118" lon="5.45658">
        <ele>37.2</ele>
        <time>2018-02-03T10:01:59Z</time>
      </trkpt>
      <trkpt lat="43.21178" lon="5.4566">
        <ele>31.6</ele>
        <time>2018-02-03T10:02:04Z</time>
      </trkpt>
      <trkpt lat="43.21175" lon="5.4566">
        <ele>29.4</ele>
        <time>2018-02-03T10:02:09Z</time>
      </trkpt>
      <trkpt lat="43.21174" lon="5.45659">
        <ele>27.4</ele>
        <time>2018-02-03T10:02:14Z</time>
      </trkpt>
      <trkpt lat="43.21172" lon="5.45658">
        <ele>26.2</ele>
        <time>2018-02-03T10:02:19Z</time>
      </trkpt>
      <trkpt lat="43.21172" lon="5.45659">
        <ele>27</ele>
        <time>2018-02-03T10:02:24Z</time>
      </trkpt>
      <trkpt lat="43.21169" lon="5.45659">
        <ele>28.6</ele>
        <time>2018-02-03T10:02:29Z</time>
      </trkpt>
      <trkpt lat="43.21166" lon="5.45657">
        <ele>25.8</ele>
        <time>2018-02-03T10:02:34Z</time>
      </trkpt>
      <trkpt lat="43.21163" lon="5.45656">
        <ele>26.4</ele>
        <time>2018-02-03T10:02:39Z</time>
      </trkpt>
      <trkpt lat="43.21159" lon="5.45653">
        <ele>28.8</ele>
        <time>2018-02-03T10:02:44Z</time>
      </trkpt>
      <trkpt lat="43.21154" lon="5.45651">
        <ele>29.8</ele>
        <time>2018-02-03T10:02:49Z</time>
      </trkpt>
      <trkpt lat="43.21149" lon="5.45652">
        <ele>35.6</ele>
        <time>2018-02-03T10:02:54Z</time>
      </trkpt>
      <trkpt lat="43.21146" lon="5.45652">
        <ele>37</ele>
        <time>2018-02-03T10:02:59Z</time>
      </trkpt>
      <trkpt lat="43.21146" lon="5.45652">
        <ele>39</ele>
        <time>2018-02-03T10:03:04Z</time>
      </trkpt>
      <trkpt lat="43.21145" lon="5.45652">
        <ele>39.2</ele>
        <time>2018-02-03T10:03:09Z</time>
      </trkpt>
      <trkpt lat="43.21143" lon="5.45652">
        <ele>40</ele>
        <time>2018-02-03T10:03:14Z</time>
      </trkpt>
      <trkpt lat="43.21142" lon="5.45651">
        <ele>41.8</ele>
        <time>2018-02-03T10:03:19Z</time>
      </trkpt>
      <trkpt lat="43.21141" lon="5.45652">
        <ele>43.2</ele>
        <time>2018-02-03T10:03:35Z</time>
      </trkpt>
      <trkpt lat="43.21141" lon="5.45652">
        <ele>43.4</ele>
        <time>2018-02-03T10:03:40Z</time>
      </trkpt>
      <trkpt lat="43.21137" lon="5.45656">
        <ele>40.4</ele>
        <time>2018-02-03T10:08:16Z</time>
      </trkpt>
      <trkpt lat="43.21138" lon="5.45655">
        <ele>38.2</ele>
        <time>2018-02-03T10:09:01Z</time>
      </trkpt>
      <trkpt lat="43.21139" lon="5.45654">
        <ele>40.2</ele>
        <time>2018-02-03T10:10:06Z</time>
      </trkpt>
      <trkpt lat="43.2114" lon="5.45653">
        <ele>41.2</ele>
        <time>2018-02-03T10:10:11Z</time>
      </trkpt>
      <trkpt lat="43.21141" lon="5.45652">
        <ele>40.4</ele>
        <time>2018-02-03T10:11:42Z</time>
      </trkpt>
      <trkpt lat="43.21144" lon="5.45649">
        <ele>46.6</ele>
        <time>2018-02-03T10:13:27Z</time>
      </trkpt>
      <trkpt lat="43.21145" lon="5.45647">
        <ele>47.6</ele>
        <time>2018-02-03T10:13:32Z</time>
      </trkpt>
      <trkpt lat="43.21146" lon="5.45644">
        <ele>50.2</ele>
        <time>2018-02-03T10:13:37Z</time>
      </trkpt>
      <trkpt lat="43.21147" lon="5.45642">
        <ele>47.8</ele>
        <time>2018-02-03T10:13:42Z</time>
      </trkpt>
      <trkpt lat="43.21148" lon="5.45638">
        <ele>47.6</ele>
        <time>2018-02-03T10:13:47Z</time>
      </trkpt>
      <trkpt lat="43.21151" lon="5.45638">
        <ele>44.8</ele>
        <time>2018-02-03T10:13:52Z</time>
      </trkpt>
      <trkpt lat="43.21154" lon="5.45637">
        <ele>44.8</ele>
        <time>2018-02-03T10:13:57Z</time>
      </trkpt>
      <trkpt lat="43.21154" lon="5.45636">
        <ele>45.6</ele>
        <time>2018-02-03T10:14:07Z</time>
      </trkpt>
      <trkpt lat="43.21154" lon="5.45635">
        <ele>44</ele>
        <time>2018-02-03T10:14:17Z</time>
      </trkpt>
      <trkpt lat="43.21154" lon="5.45633">
        <ele>43</ele>
        <time>2018-02-03T10:14:22Z</time>
      </trkpt>
      <trkpt lat="43.21155" lon="5.4563">
        <ele>41.2</ele>
        <time>2018-02-03T10:14:28Z</time>
      </trkpt>
      <trkpt lat="43.21154" lon="5.45628">
        <ele>35</ele>
        <time>2018-02-03T10:14:33Z</time>
      </trkpt>
      <trkpt lat="43.21155" lon="5.45627">
        <ele>37.4</ele>
        <time>2018-02-03T10:14:38Z</time>
      </trkpt>
      <trkpt lat="43.21163" lon="5.45626">
        <ele>36.6</ele>
        <time>2018-02-03T10:14:48Z</time>
      </trkpt>
      <trkpt lat="43.21165" lon="5.45625">
        <ele>34.8</ele>
        <time>2018-02-03T10:14:53Z</time>
      </trkpt>
      <trkpt lat="43.21158" lon="5.45619">
        <ele>35.8</ele>
        <time>2018-02-03T10:15:08Z</time>
      </trkpt>
      <trkpt lat="43.21156" lon="5.45616">
        <ele>30.2</ele>
        <time>2018-02-03T10:15:13Z</time>
      </trkpt>
      <trkpt lat="43.21155" lon="5.45612">
        <ele>30.8</ele>
        <time>2018-02-03T10:15:18Z</time>
      </trkpt>
      <trkpt lat="43.21154" lon="5.4561">
        <ele>32.2</ele>
        <time>2018-02-03T10:15:23Z</time>
      </trkpt>
      <trkpt lat="43.21154" lon="5.45608">
        <ele>28.8</ele>
        <time>2018-02-03T10:15:28Z</time>
      </trkpt>
      <trkpt lat="43.21154" lon="5.45605">
        <ele>29.8</ele>
        <time>2018-02-03T10:15:33Z</time>
      </trkpt>
      <trkpt lat="43.21153" lon="5.45603">
        <ele>32</ele>
        <time>2018-02-03T10:15:38Z</time>
      </trkpt>
      <trkpt lat="43.21152" lon="5.456">
        <ele>28</ele>
        <time>2018-02-03T10:15:43Z</time>
      </trkpt>
      <trkpt lat="43.21153" lon="5.45597">
        <ele>29.6</ele>
        <time>2018-02-03T10:15:48Z</time>
      </trkpt>
      <trkpt lat="43.2115" lon="5.45597">
        <ele>27</ele>
        <time>2018-02-03T10:15:53Z</time>
      </trkpt>
      <trkpt lat="43.21149" lon="5.45595">
        <ele>24.6</ele>
        <time>2018-02-03T10:15:58Z</time>
      </trkpt>
      <trkpt lat="43.21149" lon="5.45593">
        <ele>22.8</ele>
        <time>2018-02-03T10:16:03Z</time>
      </trkpt>
      <trkpt lat="43.21148" lon="5.45591">
        <ele>25.4</ele>
        <time>2018-02-03T10:16:08Z</time>
      </trkpt>
      <trkpt lat="43.21147" lon="5.4559">
        <ele>25.2</ele>
        <time>2018-02-03T10:16:13Z</time>
      </trkpt>
      <trkpt lat="43.21145" lon="5.4559">
        <ele>25.4</ele>
        <time>2018-02-03T10:16:18Z</time>
      </trkpt>
      <trkpt lat="43.21144" lon="5.45589">
        <ele>25.4</ele>
        <time>2018-02-03T10:16:23Z</time>
      </trkpt>
      <trkpt lat="43.21144" lon="5.45588">
        <ele>25.2</ele>
        <time>2018-02-03T10:16:28Z</time>
      </trkpt>
      <trkpt lat="43.21143" lon="5.45587">
        <ele>22.2</ele>
        <time>2018-02-03T10:16:33Z</time>
      </trkpt>
      <trkpt lat="43.21143" lon="5.45585">
        <ele>22.8</ele>
        <time>2018-02-03T10:16:38Z</time>
      </trkpt>
      <trkpt lat="43.21143" lon="5.4558">
        <ele>25</ele>
        <time>2018-02-03T10:16:43Z</time>
      </trkpt>
      <trkpt lat="43.21143" lon="5.45577">
        <ele>25.4</ele>
        <time>2018-02-03T10:16:48Z</time>
      </trkpt>
      <trkpt lat="43.21143" lon="5.45575">
        <ele>22</ele>
        <time>2018-02-03T10:16:53Z</time>
      </trkpt>
      <trkpt lat="43.21143" lon="5.45572">
        <ele>22.6</ele>
        <time>2018-02-03T10:16:58Z</time>
      </trkpt>
      <trkpt lat="43.21141" lon="5.45574">
        <ele>18.4</ele>
        <time>2018-02-03T10:17:03Z</time>
      </trkpt>
      <trkpt lat="43.21139" lon="5.45579">
        <ele>22.8</ele>
        <time>2018-02-03T10:17:13Z</time>
      </trkpt>
      <trkpt lat="43.21139" lon="5.45579">
        <ele>22.2</ele>
        <time>2018-02-03T10:17:18Z</time>
      </trkpt>
      <trkpt lat="43.21137" lon="5.45582">
        <ele>19.8</ele>
        <time>2018-02-03T10:17:23Z</time>
      </trkpt>
      <trkpt lat="43.21136" lon="5.45586">
        <ele>20</ele>
        <time>2018-02-03T10:17:28Z</time>
      </trkpt>
      <trkpt lat="43.21134" lon="5.45589">
        <ele>19.2</ele>
        <time>2018-02-03T10:17:38Z</time>
      </trkpt>
      <trkpt lat="43.21133" lon="5.45583">
        <ele>17</ele>
        <time>2018-02-03T10:17:49Z</time>
      </trkpt>
      <trkpt lat="43.21133" lon="5.45579">
        <ele>16.6</ele>
        <time>2018-02-03T10:17:59Z</time>
      </trkpt>
      <trkpt lat="43.21133" lon="5.45577">
        <ele>13.4</ele>
        <time>2018-02-03T10:18:29Z</time>
      </trkpt>
      <trkpt lat="43.21132" lon="5.45578">
        <ele>13.2</ele>
        <time>2018-02-03T10:18:59Z</time>
      </trkpt>
      <trkpt lat="43.21132" lon="5.45581">
        <ele>13.8</ele>
        <time>2018-02-03T10:19:04Z</time>
      </trkpt>
      <trkpt lat="43.21131" lon="5.45583">
        <ele>14.6</ele>
        <time>2018-02-03T10:19:09Z</time>
      </trkpt>
      <trkpt lat="43.21132" lon="5.45585">
        <ele>14.4</ele>
        <time>2018-02-03T10:19:19Z</time>
      </trkpt>
      <trkpt lat="43.21132" lon="5.45587">
        <ele>14.2</ele>
        <time>2018-02-03T10:19:24Z</time>
      </trkpt>
      <trkpt lat="43.21131" lon="5.45591">
        <ele>14.4</ele>
        <time>2018-02-03T10:19:29Z</time>
      </trkpt>
      <trkpt lat="43.2113" lon="5.45596">
        <ele>12</ele>
        <time>2018-02-03T10:19:34Z</time>
      </trkpt>
      <trkpt lat="43.21129" lon="5.456">
        <ele>15</ele>
        <time>2018-02-03T10:19:39Z</time>
      </trkpt>
      <trkpt lat="43.21128" lon="5.45602">
        <ele>16.4</ele>
        <time>2018-02-03T10:19:44Z</time>
      </trkpt>
      <trkpt lat="43.21128" lon="5.45605">
        <ele>15.6</ele>
        <time>2018-02-03T10:19:49Z</time>
      </trkpt>
      <trkpt lat="43.21127" lon="5.45608">
        <ele>12.6</ele>
        <time>2018-02-03T10:19:54Z</time>
      </trkpt>
      <trkpt lat="43.21126" lon="5.45611">
        <ele>12.6</ele>
        <time>2018-02-03T10:19:59Z</time>
      </trkpt>
      <trkpt lat="43.21125" lon="5.45613">
        <ele>12</ele>
        <time>2018-02-03T10:20:04Z</time>
      </trkpt>
      <trkpt lat="43.21125" lon="5.45613">
        <ele>11.6</ele>
        <time>2018-02-03T10:20:09Z</time>
      </trkpt>
      <trkpt lat="43.21124" lon="5.45614">
        <ele>10.2</ele>
        <time>2018-02-03T10:20:14Z</time>
      </trkpt>
      <trkpt lat="43.21123" lon="5.45617">
        <ele>8</ele>
        <time>2018-02-03T10:20:49Z</time>
      </trkpt>
      <trkpt lat="43.21123" lon="5.45616">
        <ele>3</ele>
        <time>2018-02-03T10:21:19Z</time>
      </trkpt>
      <trkpt lat="43.21123" lon="5.45616">
        <ele>3.2</ele>
        <time>2018-02-03T10:21:24Z</time>
      </trkpt>
      <trkpt lat="43.21123" lon="5.45614">
        <ele>5.8</ele>
        <time>2018-02-03T10:21:29Z</time>
      </trkpt>
      <trkpt lat="43.21124" lon="5.45614">
        <ele>2.4</ele>
        <time>2018-02-03T10:21:49Z</time>
      </trkpt>
      <trkpt lat="43.21124" lon="5.45611">
        <ele>0.8</ele>
        <time>2018-02-03T10:21:54Z</time>
      </trkpt>
      <trkpt lat="43.21123" lon="5.45607">
        <ele>0.8</ele>
        <time>2018-02-03T10:21:59Z</time>
      </trkpt>
      <trkpt lat="43.21122" lon="5.45603">
        <ele>1.2</ele>
        <time>2018-02-03T10:22:04Z</time>
      </trkpt>
      <trkpt lat="43.21123" lon="5.456">
        <ele>1.2</ele>
        <time>2018-02-03T10:22:09Z</time>
      </trkpt>
      <trkpt lat="43.21124" lon="5.45595">
        <ele>0.8</ele>
        <time>2018-02-03T10:22:14Z</time>
      </trkpt>
      <trkpt lat="43.21125" lon="5.45593">
        <ele>4</ele>
        <time>2018-02-03T10:22:19Z</time>
      </trkpt>
      <trkpt lat="43.21125" lon="5.45594">
        <ele>5.8</ele>
        <time>2018-02-03T10:22:39Z</time>
      </trkpt>
      <trkpt lat="43.21126" lon="5.45593">
        <ele>5</ele>
        <time>2018-02-03T10:22:44Z</time>
      </trkpt>
      <trkpt lat="43.21127" lon="5.45593">
        <ele>1</ele>
        <time>2018-02-03T10:23:44Z</time>
      </trkpt>
    </trkseg>
  </trk>
</gpx>